<?xml version="1.0" encoding="UTF-8" standalone="no" ?>
<gpx xmlns="http://www.topografix.com/GPX/1/1" xmlns:xsi="http://www.w3.org/2001/XMLSchema-instance" xsi:schemaLocation="http://www.topografix.com/GPX/1/1 http://www.topografix.com/GPX/1/1/gpx.xsd" version="1.1" creator="VisuGPX - https://www.visugpx.com">
  <metadata>
    <name>Le Milieu Grand Parc Miribel Jonage</name>
    <desc><![CDATA[Circuit balisé N°5 du Grand Parc Miribel Jonage]]></desc>
  </metadata>
  <trk>
    <name><![CDATA[ACTIVE LOG132510]]></name>
    <trkseg>
      <trkpt lat="45.80337" lon="4.93417">
        <ele>175.593</ele>
        <time>2011-06-17T13:25:08Z</time>
      </trkpt>
      <trkpt lat="45.80337" lon="4.93417">
        <ele>177.144</ele>
        <time>2011-06-17T13:25:11Z</time>
      </trkpt>
      <trkpt lat="45.80337" lon="4.93417">
        <ele>175.881</ele>
        <time>2011-06-17T13:25:13Z</time>
      </trkpt>
      <trkpt lat="45.80337" lon="4.93417">
        <ele>176.097</ele>
        <time>2011-06-17T13:25:28Z</time>
      </trkpt>
      <trkpt lat="45.80336" lon="4.93411">
        <ele>176.524</ele>
        <time>2011-06-17T13:25:39Z</time>
      </trkpt>
      <trkpt lat="45.80336" lon="4.93411">
        <ele>176.642</ele>
        <time>2011-06-17T13:25:57Z</time>
      </trkpt>
      <trkpt lat="45.80356" lon="4.93402">
        <ele>174.331</ele>
        <time>2011-06-17T13:26:04Z</time>
      </trkpt>
      <trkpt lat="45.80374" lon="4.93393">
        <ele>171.059</ele>
        <time>2011-06-17T13:26:07Z</time>
      </trkpt>
      <trkpt lat="45.80388" lon="4.93387">
        <ele>170.341</ele>
        <time>2011-06-17T13:26:09Z</time>
      </trkpt>
      <trkpt lat="45.80472" lon="4.93352">
        <ele>173.197</ele>
        <time>2011-06-17T13:26:25Z</time>
      </trkpt>
      <trkpt lat="45.80493" lon="4.93344">
        <ele>175.777</ele>
        <time>2011-06-17T13:26:33Z</time>
      </trkpt>
      <trkpt lat="45.80485" lon="4.93315">
        <ele>175.868</ele>
        <time>2011-06-17T13:26:41Z</time>
      </trkpt>
      <trkpt lat="45.80482" lon="4.93313">
        <ele>175.944</ele>
        <time>2011-06-17T13:26:42Z</time>
      </trkpt>
      <trkpt lat="45.80476" lon="4.93307">
        <ele>175.942</ele>
        <time>2011-06-17T13:26:44Z</time>
      </trkpt>
      <trkpt lat="45.80465" lon="4.93269">
        <ele>174.21</ele>
        <time>2011-06-17T13:26:50Z</time>
      </trkpt>
      <trkpt lat="45.80457" lon="4.93239">
        <ele>176.045</ele>
        <time>2011-06-17T13:26:55Z</time>
      </trkpt>
      <trkpt lat="45.80448" lon="4.93226">
        <ele>173.819</ele>
        <time>2011-06-17T13:26:58Z</time>
      </trkpt>
      <trkpt lat="45.80443" lon="4.93212">
        <ele>172.554</ele>
        <time>2011-06-17T13:27:00Z</time>
      </trkpt>
      <trkpt lat="45.80442" lon="4.93195">
        <ele>171.18</ele>
        <time>2011-06-17T13:27:02Z</time>
      </trkpt>
      <trkpt lat="45.80444" lon="4.93166">
        <ele>172.036</ele>
        <time>2011-06-17T13:27:06Z</time>
      </trkpt>
      <trkpt lat="45.80429" lon="4.9309">
        <ele>171.622</ele>
        <time>2011-06-17T13:27:17Z</time>
      </trkpt>
      <trkpt lat="45.8041" lon="4.93002">
        <ele>172.742</ele>
        <time>2011-06-17T13:27:30Z</time>
      </trkpt>
      <trkpt lat="45.80404" lon="4.9297">
        <ele>172.668</ele>
        <time>2011-06-17T13:27:35Z</time>
      </trkpt>
      <trkpt lat="45.80396" lon="4.92934">
        <ele>172.72</ele>
        <time>2011-06-17T13:27:40Z</time>
      </trkpt>
      <trkpt lat="45.80392" lon="4.9292">
        <ele>172.646</ele>
        <time>2011-06-17T13:27:42Z</time>
      </trkpt>
      <trkpt lat="45.80386" lon="4.92899">
        <ele>172.388</ele>
        <time>2011-06-17T13:27:45Z</time>
      </trkpt>
      <trkpt lat="45.80378" lon="4.92871">
        <ele>172.896</ele>
        <time>2011-06-17T13:27:49Z</time>
      </trkpt>
      <trkpt lat="45.80361" lon="4.9279">
        <ele>173.018</ele>
        <time>2011-06-17T13:28:03Z</time>
      </trkpt>
      <trkpt lat="45.8036" lon="4.92771">
        <ele>172.732</ele>
        <time>2011-06-17T13:28:06Z</time>
      </trkpt>
      <trkpt lat="45.80338" lon="4.92684">
        <ele>172.416</ele>
        <time>2011-06-17T13:28:19Z</time>
      </trkpt>
      <trkpt lat="45.80328" lon="4.92664">
        <ele>170.789</ele>
        <time>2011-06-17T13:28:22Z</time>
      </trkpt>
      <trkpt lat="45.80315" lon="4.92614">
        <ele>169.305</ele>
        <time>2011-06-17T13:28:29Z</time>
      </trkpt>
      <trkpt lat="45.80314" lon="4.92569">
        <ele>169.833</ele>
        <time>2011-06-17T13:28:35Z</time>
      </trkpt>
      <trkpt lat="45.80323" lon="4.92537">
        <ele>170.507</ele>
        <time>2011-06-17T13:28:40Z</time>
      </trkpt>
      <trkpt lat="45.80351" lon="4.9249">
        <ele>171.513</ele>
        <time>2011-06-17T13:28:49Z</time>
      </trkpt>
      <trkpt lat="45.80362" lon="4.92476">
        <ele>171.491</ele>
        <time>2011-06-17T13:28:52Z</time>
      </trkpt>
      <trkpt lat="45.8042" lon="4.92441">
        <ele>171.211</ele>
        <time>2011-06-17T13:29:04Z</time>
      </trkpt>
      <trkpt lat="45.80456" lon="4.92419">
        <ele>171.217</ele>
        <time>2011-06-17T13:29:11Z</time>
      </trkpt>
      <trkpt lat="45.80538" lon="4.92347">
        <ele>171.626</ele>
        <time>2011-06-17T13:29:30Z</time>
      </trkpt>
      <trkpt lat="45.80583" lon="4.92309">
        <ele>171.765</ele>
        <time>2011-06-17T13:29:40Z</time>
      </trkpt>
      <trkpt lat="45.80592" lon="4.92303">
        <ele>172.292</ele>
        <time>2011-06-17T13:29:42Z</time>
      </trkpt>
      <trkpt lat="45.80623" lon="4.92293">
        <ele>173.664</ele>
        <time>2011-06-17T13:29:49Z</time>
      </trkpt>
      <trkpt lat="45.80638" lon="4.92297">
        <ele>174.417</ele>
        <time>2011-06-17T13:29:53Z</time>
      </trkpt>
      <trkpt lat="45.80663" lon="4.92319">
        <ele>173.437</ele>
        <time>2011-06-17T13:29:58Z</time>
      </trkpt>
      <trkpt lat="45.80685" lon="4.92334">
        <ele>171.952</ele>
        <time>2011-06-17T13:30:02Z</time>
      </trkpt>
      <trkpt lat="45.80767" lon="4.92422">
        <ele>171.148</ele>
        <time>2011-06-17T13:30:19Z</time>
      </trkpt>
      <trkpt lat="45.80786" lon="4.92443">
        <ele>172.01</ele>
        <time>2011-06-17T13:30:23Z</time>
      </trkpt>
      <trkpt lat="45.80817" lon="4.92494">
        <ele>171.713</ele>
        <time>2011-06-17T13:30:32Z</time>
      </trkpt>
      <trkpt lat="45.80832" lon="4.92532">
        <ele>172.131</ele>
        <time>2011-06-17T13:30:37Z</time>
      </trkpt>
      <trkpt lat="45.80843" lon="4.92552">
        <ele>172.37</ele>
        <time>2011-06-17T13:30:40Z</time>
      </trkpt>
      <trkpt lat="45.80852" lon="4.92581">
        <ele>172.084</ele>
        <time>2011-06-17T13:30:44Z</time>
      </trkpt>
      <trkpt lat="45.80863" lon="4.92603">
        <ele>173.362</ele>
        <time>2011-06-17T13:30:47Z</time>
      </trkpt>
      <trkpt lat="45.80873" lon="4.92633">
        <ele>173.95</ele>
        <time>2011-06-17T13:30:51Z</time>
      </trkpt>
      <trkpt lat="45.80875" lon="4.92676">
        <ele>173.886</ele>
        <time>2011-06-17T13:30:56Z</time>
      </trkpt>
      <trkpt lat="45.80882" lon="4.92701">
        <ele>173.119</ele>
        <time>2011-06-17T13:30:59Z</time>
      </trkpt>
      <trkpt lat="45.80878" lon="4.92772">
        <ele>172.916</ele>
        <time>2011-06-17T13:31:08Z</time>
      </trkpt>
      <trkpt lat="45.80889" lon="4.92799">
        <ele>172.669</ele>
        <time>2011-06-17T13:31:12Z</time>
      </trkpt>
      <trkpt lat="45.80931" lon="4.92833">
        <ele>172.706</ele>
        <time>2011-06-17T13:31:21Z</time>
      </trkpt>
      <trkpt lat="45.80937" lon="4.92837">
        <ele>172.192</ele>
        <time>2011-06-17T13:31:22Z</time>
      </trkpt>
      <trkpt lat="45.80954" lon="4.92852">
        <ele>172.299</ele>
        <time>2011-06-17T13:31:25Z</time>
      </trkpt>
      <trkpt lat="45.80969" lon="4.92876">
        <ele>172.258</ele>
        <time>2011-06-17T13:31:28Z</time>
      </trkpt>
      <trkpt lat="45.81008" lon="4.92924">
        <ele>171.897</ele>
        <time>2011-06-17T13:31:37Z</time>
      </trkpt>
      <trkpt lat="45.81032" lon="4.92961">
        <ele>171.711</ele>
        <time>2011-06-17T13:31:42Z</time>
      </trkpt>
      <trkpt lat="45.81059" lon="4.92985">
        <ele>173.017</ele>
        <time>2011-06-17T13:31:47Z</time>
      </trkpt>
      <trkpt lat="45.81073" lon="4.93001">
        <ele>173.045</ele>
        <time>2011-06-17T13:31:50Z</time>
      </trkpt>
      <trkpt lat="45.81091" lon="4.93022">
        <ele>173.211</ele>
        <time>2011-06-17T13:31:54Z</time>
      </trkpt>
      <trkpt lat="45.81106" lon="4.93058">
        <ele>173.333</ele>
        <time>2011-06-17T13:31:59Z</time>
      </trkpt>
      <trkpt lat="45.81108" lon="4.93076">
        <ele>172.307</ele>
        <time>2011-06-17T13:32:01Z</time>
      </trkpt>
      <trkpt lat="45.81123" lon="4.93107">
        <ele>171.515</ele>
        <time>2011-06-17T13:32:05Z</time>
      </trkpt>
      <trkpt lat="45.81137" lon="4.9312">
        <ele>171.59</ele>
        <time>2011-06-17T13:32:08Z</time>
      </trkpt>
      <trkpt lat="45.81146" lon="4.93131">
        <ele>171.983</ele>
        <time>2011-06-17T13:32:10Z</time>
      </trkpt>
      <trkpt lat="45.81168" lon="4.93158">
        <ele>173.605</ele>
        <time>2011-06-17T13:32:16Z</time>
      </trkpt>
      <trkpt lat="45.81185" lon="4.93193">
        <ele>172.701</ele>
        <time>2011-06-17T13:32:21Z</time>
      </trkpt>
      <trkpt lat="45.81196" lon="4.93209">
        <ele>173.921</ele>
        <time>2011-06-17T13:32:24Z</time>
      </trkpt>
      <trkpt lat="45.81218" lon="4.93246">
        <ele>174.087</ele>
        <time>2011-06-17T13:32:30Z</time>
      </trkpt>
      <trkpt lat="45.81238" lon="4.93287">
        <ele>174.199</ele>
        <time>2011-06-17T13:32:36Z</time>
      </trkpt>
      <trkpt lat="45.81248" lon="4.93315">
        <ele>174.046</ele>
        <time>2011-06-17T13:32:40Z</time>
      </trkpt>
      <trkpt lat="45.81256" lon="4.93345">
        <ele>174.374</ele>
        <time>2011-06-17T13:32:44Z</time>
      </trkpt>
      <trkpt lat="45.81269" lon="4.93372">
        <ele>173.848</ele>
        <time>2011-06-17T13:32:48Z</time>
      </trkpt>
      <trkpt lat="45.81312" lon="4.93452">
        <ele>173.692</ele>
        <time>2011-06-17T13:33:00Z</time>
      </trkpt>
      <trkpt lat="45.81327" lon="4.93487">
        <ele>173.56</ele>
        <time>2011-06-17T13:33:05Z</time>
      </trkpt>
      <trkpt lat="45.81347" lon="4.93524">
        <ele>173.797</ele>
        <time>2011-06-17T13:33:11Z</time>
      </trkpt>
      <trkpt lat="45.81359" lon="4.93543">
        <ele>173.703</ele>
        <time>2011-06-17T13:33:14Z</time>
      </trkpt>
      <trkpt lat="45.81417" lon="4.93672">
        <ele>174.81</ele>
        <time>2011-06-17T13:33:34Z</time>
      </trkpt>
      <trkpt lat="45.81419" lon="4.93677">
        <ele>175.604</ele>
        <time>2011-06-17T13:33:35Z</time>
      </trkpt>
      <trkpt lat="45.81418" lon="4.93702">
        <ele>174.918</ele>
        <time>2011-06-17T13:33:41Z</time>
      </trkpt>
      <trkpt lat="45.81471" lon="4.93817">
        <ele>175.09</ele>
        <time>2011-06-17T13:33:59Z</time>
      </trkpt>
      <trkpt lat="45.81529" lon="4.93945">
        <ele>175.429</ele>
        <time>2011-06-17T13:34:18Z</time>
      </trkpt>
      <trkpt lat="45.81544" lon="4.93978">
        <ele>175.724</ele>
        <time>2011-06-17T13:34:23Z</time>
      </trkpt>
      <trkpt lat="45.81554" lon="4.94008">
        <ele>175.158</ele>
        <time>2011-06-17T13:34:28Z</time>
      </trkpt>
      <trkpt lat="45.8162" lon="4.94151">
        <ele>174.573</ele>
        <time>2011-06-17T13:34:48Z</time>
      </trkpt>
      <trkpt lat="45.81676" lon="4.94275">
        <ele>174.746</ele>
        <time>2011-06-17T13:35:06Z</time>
      </trkpt>
      <trkpt lat="45.81727" lon="4.94384">
        <ele>174.271</ele>
        <time>2011-06-17T13:35:21Z</time>
      </trkpt>
      <trkpt lat="45.81738" lon="4.94413">
        <ele>176.171</ele>
        <time>2011-06-17T13:35:27Z</time>
      </trkpt>
      <trkpt lat="45.81744" lon="4.94427">
        <ele>174.947</ele>
        <time>2011-06-17T13:35:29Z</time>
      </trkpt>
      <trkpt lat="45.818" lon="4.94556">
        <ele>173.611</ele>
        <time>2011-06-17T13:35:45Z</time>
      </trkpt>
      <trkpt lat="45.81858" lon="4.9471">
        <ele>174.209</ele>
        <time>2011-06-17T13:36:04Z</time>
      </trkpt>
      <trkpt lat="45.81878" lon="4.94779">
        <ele>178.199</ele>
        <time>2011-06-17T13:36:14Z</time>
      </trkpt>
      <trkpt lat="45.81879" lon="4.94784">
        <ele>178.199</ele>
        <time>2011-06-17T13:36:15Z</time>
      </trkpt>
      <trkpt lat="45.81883" lon="4.94792">
        <ele>179.422</ele>
        <time>2011-06-17T13:36:17Z</time>
      </trkpt>
      <trkpt lat="45.81887" lon="4.9481">
        <ele>181.216</ele>
        <time>2011-06-17T13:36:28Z</time>
      </trkpt>
      <trkpt lat="45.81888" lon="4.94812">
        <ele>180.831</ele>
        <time>2011-06-17T13:36:38Z</time>
      </trkpt>
      <trkpt lat="45.81864" lon="4.94828">
        <ele>178.513</ele>
        <time>2011-06-17T13:36:46Z</time>
      </trkpt>
      <trkpt lat="45.81848" lon="4.94834">
        <ele>174.508</ele>
        <time>2011-06-17T13:36:48Z</time>
      </trkpt>
      <trkpt lat="45.8184" lon="4.94838">
        <ele>171.198</ele>
        <time>2011-06-17T13:36:49Z</time>
      </trkpt>
      <trkpt lat="45.8181" lon="4.94849">
        <ele>171.687</ele>
        <time>2011-06-17T13:36:53Z</time>
      </trkpt>
      <trkpt lat="45.81796" lon="4.94853">
        <ele>171.951</ele>
        <time>2011-06-17T13:36:55Z</time>
      </trkpt>
      <trkpt lat="45.81779" lon="4.9489">
        <ele>173.336</ele>
        <time>2011-06-17T13:37:00Z</time>
      </trkpt>
      <trkpt lat="45.81773" lon="4.94905">
        <ele>172.745</ele>
        <time>2011-06-17T13:37:02Z</time>
      </trkpt>
      <trkpt lat="45.81752" lon="4.94931">
        <ele>172.706</ele>
        <time>2011-06-17T13:37:06Z</time>
      </trkpt>
      <trkpt lat="45.81728" lon="4.94946">
        <ele>173.012</ele>
        <time>2011-06-17T13:37:10Z</time>
      </trkpt>
      <trkpt lat="45.81707" lon="4.94998">
        <ele>173.328</ele>
        <time>2011-06-17T13:37:17Z</time>
      </trkpt>
      <trkpt lat="45.817" lon="4.95035">
        <ele>173.168</ele>
        <time>2011-06-17T13:37:21Z</time>
      </trkpt>
      <trkpt lat="45.81701" lon="4.95063">
        <ele>173.481</ele>
        <time>2011-06-17T13:37:24Z</time>
      </trkpt>
      <trkpt lat="45.81708" lon="4.95092">
        <ele>173.62</ele>
        <time>2011-06-17T13:37:27Z</time>
      </trkpt>
      <trkpt lat="45.81696" lon="4.95118">
        <ele>173.154</ele>
        <time>2011-06-17T13:37:31Z</time>
      </trkpt>
      <trkpt lat="45.81685" lon="4.95126">
        <ele>173.48</ele>
        <time>2011-06-17T13:37:33Z</time>
      </trkpt>
      <trkpt lat="45.81669" lon="4.95154">
        <ele>173.329</ele>
        <time>2011-06-17T13:37:37Z</time>
      </trkpt>
      <trkpt lat="45.81677" lon="4.95195">
        <ele>173.838</ele>
        <time>2011-06-17T13:37:42Z</time>
      </trkpt>
      <trkpt lat="45.81684" lon="4.95209">
        <ele>173.456</ele>
        <time>2011-06-17T13:37:44Z</time>
      </trkpt>
      <trkpt lat="45.81694" lon="4.9524">
        <ele>173.951</ele>
        <time>2011-06-17T13:37:48Z</time>
      </trkpt>
      <trkpt lat="45.81683" lon="4.95274">
        <ele>174.574</ele>
        <time>2011-06-17T13:37:53Z</time>
      </trkpt>
      <trkpt lat="45.81659" lon="4.95293">
        <ele>172.277</ele>
        <time>2011-06-17T13:37:57Z</time>
      </trkpt>
      <trkpt lat="45.8164" lon="4.95306">
        <ele>171.692</ele>
        <time>2011-06-17T13:38:00Z</time>
      </trkpt>
      <trkpt lat="45.81635" lon="4.95321">
        <ele>173.906</ele>
        <time>2011-06-17T13:38:02Z</time>
      </trkpt>
      <trkpt lat="45.81645" lon="4.95402">
        <ele>172.917</ele>
        <time>2011-06-17T13:38:11Z</time>
      </trkpt>
      <trkpt lat="45.81648" lon="4.9542">
        <ele>173.027</ele>
        <time>2011-06-17T13:38:13Z</time>
      </trkpt>
      <trkpt lat="45.81639" lon="4.9547">
        <ele>172.72</ele>
        <time>2011-06-17T13:38:19Z</time>
      </trkpt>
      <trkpt lat="45.81637" lon="4.95486">
        <ele>173.565</ele>
        <time>2011-06-17T13:38:21Z</time>
      </trkpt>
      <trkpt lat="45.81636" lon="4.95503">
        <ele>173.226</ele>
        <time>2011-06-17T13:38:23Z</time>
      </trkpt>
      <trkpt lat="45.81639" lon="4.9553">
        <ele>173.049</ele>
        <time>2011-06-17T13:38:26Z</time>
      </trkpt>
      <trkpt lat="45.8165" lon="4.95582">
        <ele>172.963</ele>
        <time>2011-06-17T13:38:32Z</time>
      </trkpt>
      <trkpt lat="45.8166" lon="4.9565">
        <ele>171.119</ele>
        <time>2011-06-17T13:38:39Z</time>
      </trkpt>
      <trkpt lat="45.81663" lon="4.9566">
        <ele>170.315</ele>
        <time>2011-06-17T13:38:40Z</time>
      </trkpt>
      <trkpt lat="45.81676" lon="4.95684">
        <ele>173.277</ele>
        <time>2011-06-17T13:38:44Z</time>
      </trkpt>
      <trkpt lat="45.81676" lon="4.95692">
        <ele>175.399</ele>
        <time>2011-06-17T13:38:46Z</time>
      </trkpt>
      <trkpt lat="45.81674" lon="4.957">
        <ele>175.097</ele>
        <time>2011-06-17T13:38:48Z</time>
      </trkpt>
      <trkpt lat="45.81684" lon="4.9574">
        <ele>174.435</ele>
        <time>2011-06-17T13:38:55Z</time>
      </trkpt>
      <trkpt lat="45.81708" lon="4.95826">
        <ele>174.259</ele>
        <time>2011-06-17T13:39:06Z</time>
      </trkpt>
      <trkpt lat="45.81716" lon="4.95884">
        <ele>173.962</ele>
        <time>2011-06-17T13:39:13Z</time>
      </trkpt>
      <trkpt lat="45.81722" lon="4.95924">
        <ele>173.784</ele>
        <time>2011-06-17T13:39:18Z</time>
      </trkpt>
      <trkpt lat="45.8174" lon="4.9598">
        <ele>174.805</ele>
        <time>2011-06-17T13:39:27Z</time>
      </trkpt>
      <trkpt lat="45.81743" lon="4.96011">
        <ele>173.453</ele>
        <time>2011-06-17T13:39:31Z</time>
      </trkpt>
      <trkpt lat="45.81745" lon="4.96056">
        <ele>172.22</ele>
        <time>2011-06-17T13:39:36Z</time>
      </trkpt>
      <trkpt lat="45.81746" lon="4.96091">
        <ele>172.842</ele>
        <time>2011-06-17T13:39:40Z</time>
      </trkpt>
      <trkpt lat="45.81751" lon="4.96122">
        <ele>172.398</ele>
        <time>2011-06-17T13:39:44Z</time>
      </trkpt>
      <trkpt lat="45.81761" lon="4.96149">
        <ele>173.582</ele>
        <time>2011-06-17T13:39:48Z</time>
      </trkpt>
      <trkpt lat="45.81792" lon="4.96188">
        <ele>174.359</ele>
        <time>2011-06-17T13:39:56Z</time>
      </trkpt>
      <trkpt lat="45.81798" lon="4.962">
        <ele>174.062</ele>
        <time>2011-06-17T13:39:58Z</time>
      </trkpt>
      <trkpt lat="45.81793" lon="4.96266">
        <ele>172.868</ele>
        <time>2011-06-17T13:40:06Z</time>
      </trkpt>
      <trkpt lat="45.81803" lon="4.96306">
        <ele>175.949</ele>
        <time>2011-06-17T13:40:11Z</time>
      </trkpt>
      <trkpt lat="45.81805" lon="4.96314">
        <ele>175.948</ele>
        <time>2011-06-17T13:40:12Z</time>
      </trkpt>
      <trkpt lat="45.81824" lon="4.96371">
        <ele>175.4</ele>
        <time>2011-06-17T13:40:19Z</time>
      </trkpt>
      <trkpt lat="45.8183" lon="4.96397">
        <ele>174.433</ele>
        <time>2011-06-17T13:40:22Z</time>
      </trkpt>
      <trkpt lat="45.81861" lon="4.96504">
        <ele>174.13</ele>
        <time>2011-06-17T13:40:35Z</time>
      </trkpt>
      <trkpt lat="45.81887" lon="4.96583">
        <ele>174.079</ele>
        <time>2011-06-17T13:40:45Z</time>
      </trkpt>
      <trkpt lat="45.81896" lon="4.96615">
        <ele>174.221</ele>
        <time>2011-06-17T13:40:49Z</time>
      </trkpt>
      <trkpt lat="45.8191" lon="4.96659">
        <ele>174.145</ele>
        <time>2011-06-17T13:40:55Z</time>
      </trkpt>
      <trkpt lat="45.81928" lon="4.96722">
        <ele>173.785</ele>
        <time>2011-06-17T13:41:03Z</time>
      </trkpt>
      <trkpt lat="45.81936" lon="4.96756">
        <ele>175.783</ele>
        <time>2011-06-17T13:41:09Z</time>
      </trkpt>
      <trkpt lat="45.81957" lon="4.96795">
        <ele>175.057</ele>
        <time>2011-06-17T13:41:19Z</time>
      </trkpt>
      <trkpt lat="45.81961" lon="4.96808">
        <ele>175.498</ele>
        <time>2011-06-17T13:41:21Z</time>
      </trkpt>
      <trkpt lat="45.81976" lon="4.96846">
        <ele>174.629</ele>
        <time>2011-06-17T13:41:27Z</time>
      </trkpt>
      <trkpt lat="45.8198" lon="4.96882">
        <ele>174.716</ele>
        <time>2011-06-17T13:41:32Z</time>
      </trkpt>
      <trkpt lat="45.81989" lon="4.96938">
        <ele>175.074</ele>
        <time>2011-06-17T13:41:39Z</time>
      </trkpt>
      <trkpt lat="45.82008" lon="4.96998">
        <ele>175.188</ele>
        <time>2011-06-17T13:41:46Z</time>
      </trkpt>
      <trkpt lat="45.82011" lon="4.97023">
        <ele>175.299</ele>
        <time>2011-06-17T13:41:49Z</time>
      </trkpt>
      <trkpt lat="45.82019" lon="4.97048">
        <ele>175.164</ele>
        <time>2011-06-17T13:41:52Z</time>
      </trkpt>
      <trkpt lat="45.82009" lon="4.97083">
        <ele>174.303</ele>
        <time>2011-06-17T13:41:57Z</time>
      </trkpt>
      <trkpt lat="45.81932" lon="4.97156">
        <ele>174.938</ele>
        <time>2011-06-17T13:42:12Z</time>
      </trkpt>
      <trkpt lat="45.81922" lon="4.97165">
        <ele>174.918</ele>
        <time>2011-06-17T13:42:14Z</time>
      </trkpt>
      <trkpt lat="45.81853" lon="4.97248">
        <ele>173.925</ele>
        <time>2011-06-17T13:42:29Z</time>
      </trkpt>
      <trkpt lat="45.81838" lon="4.97263">
        <ele>174.614</ele>
        <time>2011-06-17T13:42:32Z</time>
      </trkpt>
      <trkpt lat="45.81816" lon="4.97272">
        <ele>174.552</ele>
        <time>2011-06-17T13:42:36Z</time>
      </trkpt>
      <trkpt lat="45.81776" lon="4.97268">
        <ele>174.952</ele>
        <time>2011-06-17T13:42:43Z</time>
      </trkpt>
      <trkpt lat="45.81746" lon="4.97307">
        <ele>173.804</ele>
        <time>2011-06-17T13:42:50Z</time>
      </trkpt>
      <trkpt lat="45.81745" lon="4.97322">
        <ele>174.981</ele>
        <time>2011-06-17T13:42:52Z</time>
      </trkpt>
      <trkpt lat="45.81746" lon="4.97336">
        <ele>175.211</ele>
        <time>2011-06-17T13:42:54Z</time>
      </trkpt>
      <trkpt lat="45.81754" lon="4.97366">
        <ele>175.358</ele>
        <time>2011-06-17T13:42:58Z</time>
      </trkpt>
      <trkpt lat="45.81773" lon="4.97403">
        <ele>174.955</ele>
        <time>2011-06-17T13:43:03Z</time>
      </trkpt>
      <trkpt lat="45.81793" lon="4.97435">
        <ele>174.655</ele>
        <time>2011-06-17T13:43:08Z</time>
      </trkpt>
      <trkpt lat="45.81788" lon="4.97476">
        <ele>174.642</ele>
        <time>2011-06-17T13:43:15Z</time>
      </trkpt>
      <trkpt lat="45.81775" lon="4.9749">
        <ele>174.822</ele>
        <time>2011-06-17T13:43:18Z</time>
      </trkpt>
      <trkpt lat="45.81719" lon="4.97565">
        <ele>175.303</ele>
        <time>2011-06-17T13:43:31Z</time>
      </trkpt>
      <trkpt lat="45.81708" lon="4.976">
        <ele>176.2</ele>
        <time>2011-06-17T13:43:36Z</time>
      </trkpt>
      <trkpt lat="45.81703" lon="4.97675">
        <ele>176.679</ele>
        <time>2011-06-17T13:43:45Z</time>
      </trkpt>
      <trkpt lat="45.81692" lon="4.97706">
        <ele>176.802</ele>
        <time>2011-06-17T13:43:49Z</time>
      </trkpt>
      <trkpt lat="45.8168" lon="4.97732">
        <ele>177.11</ele>
        <time>2011-06-17T13:43:53Z</time>
      </trkpt>
      <trkpt lat="45.81666" lon="4.97757">
        <ele>177.437</ele>
        <time>2011-06-17T13:43:58Z</time>
      </trkpt>
      <trkpt lat="45.81662" lon="4.97807">
        <ele>177.142</ele>
        <time>2011-06-17T13:44:05Z</time>
      </trkpt>
      <trkpt lat="45.81655" lon="4.97833">
        <ele>177.105</ele>
        <time>2011-06-17T13:44:09Z</time>
      </trkpt>
      <trkpt lat="45.8165" lon="4.97837">
        <ele>178.561</ele>
        <time>2011-06-17T13:44:20Z</time>
      </trkpt>
      <trkpt lat="45.81651" lon="4.97837">
        <ele>178.088</ele>
        <time>2011-06-17T13:44:29Z</time>
      </trkpt>
      <trkpt lat="45.81636" lon="4.97868">
        <ele>177.118</ele>
        <time>2011-06-17T13:44:40Z</time>
      </trkpt>
      <trkpt lat="45.81614" lon="4.97915">
        <ele>176.714</ele>
        <time>2011-06-17T13:44:48Z</time>
      </trkpt>
      <trkpt lat="45.81603" lon="4.97949">
        <ele>177.04</ele>
        <time>2011-06-17T13:44:53Z</time>
      </trkpt>
      <trkpt lat="45.81581" lon="4.97988">
        <ele>176.759</ele>
        <time>2011-06-17T13:44:59Z</time>
      </trkpt>
      <trkpt lat="45.81565" lon="4.9801">
        <ele>176.854</ele>
        <time>2011-06-17T13:45:03Z</time>
      </trkpt>
      <trkpt lat="45.81542" lon="4.98088">
        <ele>177.265</ele>
        <time>2011-06-17T13:45:14Z</time>
      </trkpt>
      <trkpt lat="45.81536" lon="4.98108">
        <ele>177.636</ele>
        <time>2011-06-17T13:45:17Z</time>
      </trkpt>
      <trkpt lat="45.81534" lon="4.98123">
        <ele>177.147</ele>
        <time>2011-06-17T13:45:19Z</time>
      </trkpt>
      <trkpt lat="45.81525" lon="4.98153">
        <ele>176.986</ele>
        <time>2011-06-17T13:45:23Z</time>
      </trkpt>
      <trkpt lat="45.81514" lon="4.98198">
        <ele>176.902</ele>
        <time>2011-06-17T13:45:29Z</time>
      </trkpt>
      <trkpt lat="45.81505" lon="4.98255">
        <ele>177.185</ele>
        <time>2011-06-17T13:45:38Z</time>
      </trkpt>
      <trkpt lat="45.81501" lon="4.98269">
        <ele>177.407</ele>
        <time>2011-06-17T13:45:40Z</time>
      </trkpt>
      <trkpt lat="45.81494" lon="4.98321">
        <ele>176.896</ele>
        <time>2011-06-17T13:45:47Z</time>
      </trkpt>
      <trkpt lat="45.81486" lon="4.98388">
        <ele>176.936</ele>
        <time>2011-06-17T13:45:55Z</time>
      </trkpt>
      <trkpt lat="45.81484" lon="4.98436">
        <ele>177.189</ele>
        <time>2011-06-17T13:46:02Z</time>
      </trkpt>
      <trkpt lat="45.81483" lon="4.98444">
        <ele>177.012</ele>
        <time>2011-06-17T13:46:03Z</time>
      </trkpt>
      <trkpt lat="45.81476" lon="4.98473">
        <ele>176.845</ele>
        <time>2011-06-17T13:46:07Z</time>
      </trkpt>
      <trkpt lat="45.81466" lon="4.98492">
        <ele>175.598</ele>
        <time>2011-06-17T13:46:10Z</time>
      </trkpt>
      <trkpt lat="45.81466" lon="4.98549">
        <ele>177.088</ele>
        <time>2011-06-17T13:46:18Z</time>
      </trkpt>
      <trkpt lat="45.81469" lon="4.98554">
        <ele>176.928</ele>
        <time>2011-06-17T13:46:19Z</time>
      </trkpt>
      <trkpt lat="45.81477" lon="4.98566">
        <ele>177.361</ele>
        <time>2011-06-17T13:46:21Z</time>
      </trkpt>
      <trkpt lat="45.81483" lon="4.98594">
        <ele>177.538</ele>
        <time>2011-06-17T13:46:25Z</time>
      </trkpt>
      <trkpt lat="45.81501" lon="4.98728">
        <ele>177.506</ele>
        <time>2011-06-17T13:46:42Z</time>
      </trkpt>
      <trkpt lat="45.81522" lon="4.98865">
        <ele>177.623</ele>
        <time>2011-06-17T13:47:00Z</time>
      </trkpt>
      <trkpt lat="45.8155" lon="4.98997">
        <ele>177.499</ele>
        <time>2011-06-17T13:47:18Z</time>
      </trkpt>
      <trkpt lat="45.81589" lon="4.9913">
        <ele>177.4</ele>
        <time>2011-06-17T13:47:36Z</time>
      </trkpt>
      <trkpt lat="45.81598" lon="4.99164">
        <ele>176.801</ele>
        <time>2011-06-17T13:47:40Z</time>
      </trkpt>
      <trkpt lat="45.81602" lon="4.99191">
        <ele>176.418</ele>
        <time>2011-06-17T13:47:43Z</time>
      </trkpt>
      <trkpt lat="45.81607" lon="4.99217">
        <ele>176.254</ele>
        <time>2011-06-17T13:47:46Z</time>
      </trkpt>
      <trkpt lat="45.81621" lon="4.99298">
        <ele>176.982</ele>
        <time>2011-06-17T13:47:56Z</time>
      </trkpt>
      <trkpt lat="45.81634" lon="4.99453">
        <ele>176.271</ele>
        <time>2011-06-17T13:48:14Z</time>
      </trkpt>
      <trkpt lat="45.81625" lon="4.99601">
        <ele>177.238</ele>
        <time>2011-06-17T13:48:30Z</time>
      </trkpt>
      <trkpt lat="45.81594" lon="4.99734">
        <ele>176.956</ele>
        <time>2011-06-17T13:48:46Z</time>
      </trkpt>
      <trkpt lat="45.81533" lon="4.99903">
        <ele>176.888</ele>
        <time>2011-06-17T13:49:07Z</time>
      </trkpt>
      <trkpt lat="45.81527" lon="4.9992">
        <ele>175.516</ele>
        <time>2011-06-17T13:49:09Z</time>
      </trkpt>
      <trkpt lat="45.81467" lon="5.00074">
        <ele>177.643</ele>
        <time>2011-06-17T13:49:29Z</time>
      </trkpt>
      <trkpt lat="45.81395" lon="5.00255">
        <ele>177.053</ele>
        <time>2011-06-17T13:49:53Z</time>
      </trkpt>
      <trkpt lat="45.81359" lon="5.00322">
        <ele>177.208</ele>
        <time>2011-06-17T13:50:04Z</time>
      </trkpt>
      <trkpt lat="45.8131" lon="5.00465">
        <ele>176.841</ele>
        <time>2011-06-17T13:50:24Z</time>
      </trkpt>
      <trkpt lat="45.81259" lon="5.00601">
        <ele>178.204</ele>
        <time>2011-06-17T13:50:44Z</time>
      </trkpt>
      <trkpt lat="45.81203" lon="5.00768">
        <ele>179.337</ele>
        <time>2011-06-17T13:51:07Z</time>
      </trkpt>
      <trkpt lat="45.81184" lon="5.00847">
        <ele>177.767</ele>
        <time>2011-06-17T13:51:17Z</time>
      </trkpt>
      <trkpt lat="45.81165" lon="5.0088">
        <ele>178.067</ele>
        <time>2011-06-17T13:51:22Z</time>
      </trkpt>
      <trkpt lat="45.81152" lon="5.00919">
        <ele>178.469</ele>
        <time>2011-06-17T13:51:27Z</time>
      </trkpt>
      <trkpt lat="45.81145" lon="5.00942">
        <ele>178.566</ele>
        <time>2011-06-17T13:51:30Z</time>
      </trkpt>
      <trkpt lat="45.81137" lon="5.00955">
        <ele>178.194</ele>
        <time>2011-06-17T13:51:32Z</time>
      </trkpt>
      <trkpt lat="45.81134" lon="5.00989">
        <ele>178.121</ele>
        <time>2011-06-17T13:51:36Z</time>
      </trkpt>
      <trkpt lat="45.81128" lon="5.01025">
        <ele>177.563</ele>
        <time>2011-06-17T13:51:40Z</time>
      </trkpt>
      <trkpt lat="45.81114" lon="5.01102">
        <ele>176.556</ele>
        <time>2011-06-17T13:51:48Z</time>
      </trkpt>
      <trkpt lat="45.81109" lon="5.01109">
        <ele>176.556</ele>
        <time>2011-06-17T13:51:49Z</time>
      </trkpt>
      <trkpt lat="45.81094" lon="5.01148">
        <ele>177.496</ele>
        <time>2011-06-17T13:51:54Z</time>
      </trkpt>
      <trkpt lat="45.81095" lon="5.01165">
        <ele>177.734</ele>
        <time>2011-06-17T13:51:56Z</time>
      </trkpt>
      <trkpt lat="45.81094" lon="5.01238">
        <ele>178.215</ele>
        <time>2011-06-17T13:52:05Z</time>
      </trkpt>
      <trkpt lat="45.81068" lon="5.01289">
        <ele>177.487</ele>
        <time>2011-06-17T13:52:13Z</time>
      </trkpt>
      <trkpt lat="45.81058" lon="5.0129">
        <ele>179.076</ele>
        <time>2011-06-17T13:52:16Z</time>
      </trkpt>
      <trkpt lat="45.81053" lon="5.01279">
        <ele>178.657</ele>
        <time>2011-06-17T13:52:18Z</time>
      </trkpt>
      <trkpt lat="45.81027" lon="5.0123">
        <ele>178.334</ele>
        <time>2011-06-17T13:52:26Z</time>
      </trkpt>
      <trkpt lat="45.80961" lon="5.0114">
        <ele>178.33</ele>
        <time>2011-06-17T13:52:42Z</time>
      </trkpt>
      <trkpt lat="45.80932" lon="5.01093">
        <ele>179.508</ele>
        <time>2011-06-17T13:52:50Z</time>
      </trkpt>
      <trkpt lat="45.80924" lon="5.01064">
        <ele>179.214</ele>
        <time>2011-06-17T13:52:54Z</time>
      </trkpt>
      <trkpt lat="45.80919" lon="5.01044">
        <ele>179.212</ele>
        <time>2011-06-17T13:52:57Z</time>
      </trkpt>
      <trkpt lat="45.80911" lon="5.01006">
        <ele>180.598</ele>
        <time>2011-06-17T13:53:03Z</time>
      </trkpt>
      <trkpt lat="45.80905" lon="5.01003">
        <ele>180.809</ele>
        <time>2011-06-17T13:53:12Z</time>
      </trkpt>
      <trkpt lat="45.80905" lon="5.01003">
        <ele>180.169</ele>
        <time>2011-06-17T13:53:35Z</time>
      </trkpt>
      <trkpt lat="45.8089" lon="5.01021">
        <ele>178.876</ele>
        <time>2011-06-17T13:53:43Z</time>
      </trkpt>
      <trkpt lat="45.80877" lon="5.01053">
        <ele>178.078</ele>
        <time>2011-06-17T13:53:48Z</time>
      </trkpt>
      <trkpt lat="45.80873" lon="5.01078">
        <ele>178.16</ele>
        <time>2011-06-17T13:53:51Z</time>
      </trkpt>
      <trkpt lat="45.80875" lon="5.01218">
        <ele>178.534</ele>
        <time>2011-06-17T13:54:08Z</time>
      </trkpt>
      <trkpt lat="45.80875" lon="5.01365">
        <ele>178.606</ele>
        <time>2011-06-17T13:54:25Z</time>
      </trkpt>
      <trkpt lat="45.80866" lon="5.01447">
        <ele>178.679</ele>
        <time>2011-06-17T13:54:34Z</time>
      </trkpt>
      <trkpt lat="45.80852" lon="5.01518">
        <ele>178.276</ele>
        <time>2011-06-17T13:54:42Z</time>
      </trkpt>
      <trkpt lat="45.80848" lon="5.01544">
        <ele>178.869</ele>
        <time>2011-06-17T13:54:45Z</time>
      </trkpt>
      <trkpt lat="45.80845" lon="5.0156">
        <ele>178.722</ele>
        <time>2011-06-17T13:54:47Z</time>
      </trkpt>
      <trkpt lat="45.80821" lon="5.01648">
        <ele>179.403</ele>
        <time>2011-06-17T13:54:58Z</time>
      </trkpt>
      <trkpt lat="45.80774" lon="5.01753">
        <ele>179.461</ele>
        <time>2011-06-17T13:55:13Z</time>
      </trkpt>
      <trkpt lat="45.8076" lon="5.01789">
        <ele>179.261</ele>
        <time>2011-06-17T13:55:19Z</time>
      </trkpt>
      <trkpt lat="45.80747" lon="5.01813">
        <ele>179.471</ele>
        <time>2011-06-17T13:55:24Z</time>
      </trkpt>
      <trkpt lat="45.80716" lon="5.01861">
        <ele>179.929</ele>
        <time>2011-06-17T13:55:36Z</time>
      </trkpt>
      <trkpt lat="45.80665" lon="5.01948">
        <ele>179.041</ele>
        <time>2011-06-17T13:55:50Z</time>
      </trkpt>
      <trkpt lat="45.80646" lon="5.01991">
        <ele>179.605</ele>
        <time>2011-06-17T13:55:56Z</time>
      </trkpt>
      <trkpt lat="45.80642" lon="5.02029">
        <ele>179.221</ele>
        <time>2011-06-17T13:56:01Z</time>
      </trkpt>
      <trkpt lat="45.80633" lon="5.02042">
        <ele>180.124</ele>
        <time>2011-06-17T13:56:06Z</time>
      </trkpt>
      <trkpt lat="45.80631" lon="5.02038">
        <ele>180.492</ele>
        <time>2011-06-17T13:56:07Z</time>
      </trkpt>
      <trkpt lat="45.80622" lon="5.02017">
        <ele>179.308</ele>
        <time>2011-06-17T13:56:11Z</time>
      </trkpt>
      <trkpt lat="45.80591" lon="5.01999">
        <ele>179.035</ele>
        <time>2011-06-17T13:56:18Z</time>
      </trkpt>
      <trkpt lat="45.80564" lon="5.02011">
        <ele>177.702</ele>
        <time>2011-06-17T13:56:23Z</time>
      </trkpt>
      <trkpt lat="45.80513" lon="5.02076">
        <ele>177.99</ele>
        <time>2011-06-17T13:56:35Z</time>
      </trkpt>
      <trkpt lat="45.80509" lon="5.02101">
        <ele>178.42</ele>
        <time>2011-06-17T13:56:40Z</time>
      </trkpt>
      <trkpt lat="45.80507" lon="5.02106">
        <ele>178.206</ele>
        <time>2011-06-17T13:56:41Z</time>
      </trkpt>
      <trkpt lat="45.80501" lon="5.02116">
        <ele>177.867</ele>
        <time>2011-06-17T13:56:43Z</time>
      </trkpt>
      <trkpt lat="45.80487" lon="5.02148">
        <ele>178.347</ele>
        <time>2011-06-17T13:56:48Z</time>
      </trkpt>
      <trkpt lat="45.80486" lon="5.02173">
        <ele>178.578</ele>
        <time>2011-06-17T13:56:52Z</time>
      </trkpt>
      <trkpt lat="45.80489" lon="5.0218">
        <ele>180.235</ele>
        <time>2011-06-17T13:56:54Z</time>
      </trkpt>
      <trkpt lat="45.80477" lon="5.02223">
        <ele>180.478</ele>
        <time>2011-06-17T13:57:02Z</time>
      </trkpt>
      <trkpt lat="45.80473" lon="5.02246">
        <ele>179.763</ele>
        <time>2011-06-17T13:57:06Z</time>
      </trkpt>
      <trkpt lat="45.80473" lon="5.02264">
        <ele>180.374</ele>
        <time>2011-06-17T13:57:09Z</time>
      </trkpt>
      <trkpt lat="45.8048" lon="5.0229">
        <ele>179.73</ele>
        <time>2011-06-17T13:57:13Z</time>
      </trkpt>
      <trkpt lat="45.8049" lon="5.02314">
        <ele>180.011</ele>
        <time>2011-06-17T13:57:17Z</time>
      </trkpt>
      <trkpt lat="45.80488" lon="5.0235">
        <ele>179.063</ele>
        <time>2011-06-17T13:57:22Z</time>
      </trkpt>
      <trkpt lat="45.80486" lon="5.02372">
        <ele>180.913</ele>
        <time>2011-06-17T13:57:25Z</time>
      </trkpt>
      <trkpt lat="45.80488" lon="5.02393">
        <ele>180.806</ele>
        <time>2011-06-17T13:57:28Z</time>
      </trkpt>
      <trkpt lat="45.80484" lon="5.02415">
        <ele>180.293</ele>
        <time>2011-06-17T13:57:31Z</time>
      </trkpt>
      <trkpt lat="45.80473" lon="5.02495">
        <ele>179.672</ele>
        <time>2011-06-17T13:57:42Z</time>
      </trkpt>
      <trkpt lat="45.80456" lon="5.02527">
        <ele>180.871</ele>
        <time>2011-06-17T13:57:48Z</time>
      </trkpt>
      <trkpt lat="45.80446" lon="5.0256">
        <ele>179.623</ele>
        <time>2011-06-17T13:57:53Z</time>
      </trkpt>
      <trkpt lat="45.80432" lon="5.02613">
        <ele>179.746</ele>
        <time>2011-06-17T13:58:00Z</time>
      </trkpt>
      <trkpt lat="45.80428" lon="5.02648">
        <ele>179.066</ele>
        <time>2011-06-17T13:58:05Z</time>
      </trkpt>
      <trkpt lat="45.80435" lon="5.02694">
        <ele>179.007</ele>
        <time>2011-06-17T13:58:11Z</time>
      </trkpt>
      <trkpt lat="45.80447" lon="5.02735">
        <ele>178.808</ele>
        <time>2011-06-17T13:58:17Z</time>
      </trkpt>
      <trkpt lat="45.80457" lon="5.0276">
        <ele>179.989</ele>
        <time>2011-06-17T13:58:21Z</time>
      </trkpt>
      <trkpt lat="45.80466" lon="5.02783">
        <ele>179.333</ele>
        <time>2011-06-17T13:58:25Z</time>
      </trkpt>
      <trkpt lat="45.80469" lon="5.02798">
        <ele>179.56</ele>
        <time>2011-06-17T13:58:27Z</time>
      </trkpt>
      <trkpt lat="45.80493" lon="5.02862">
        <ele>179.16</ele>
        <time>2011-06-17T13:58:36Z</time>
      </trkpt>
      <trkpt lat="45.80504" lon="5.02906">
        <ele>178.45</ele>
        <time>2011-06-17T13:58:42Z</time>
      </trkpt>
      <trkpt lat="45.80512" lon="5.02922">
        <ele>179.883</ele>
        <time>2011-06-17T13:58:45Z</time>
      </trkpt>
      <trkpt lat="45.80537" lon="5.02984">
        <ele>179.172</ele>
        <time>2011-06-17T13:58:54Z</time>
      </trkpt>
      <trkpt lat="45.80553" lon="5.03009">
        <ele>179.594</ele>
        <time>2011-06-17T13:58:58Z</time>
      </trkpt>
      <trkpt lat="45.80563" lon="5.0303">
        <ele>179.086</ele>
        <time>2011-06-17T13:59:01Z</time>
      </trkpt>
      <trkpt lat="45.80586" lon="5.03067">
        <ele>179.791</ele>
        <time>2011-06-17T13:59:07Z</time>
      </trkpt>
      <trkpt lat="45.80629" lon="5.03115">
        <ele>179.753</ele>
        <time>2011-06-17T13:59:16Z</time>
      </trkpt>
      <trkpt lat="45.80641" lon="5.03141">
        <ele>179.139</ele>
        <time>2011-06-17T13:59:20Z</time>
      </trkpt>
      <trkpt lat="45.80645" lon="5.0317">
        <ele>179.097</ele>
        <time>2011-06-17T13:59:24Z</time>
      </trkpt>
      <trkpt lat="45.80646" lon="5.03199">
        <ele>179.885</ele>
        <time>2011-06-17T13:59:29Z</time>
      </trkpt>
      <trkpt lat="45.80636" lon="5.03215">
        <ele>179.842</ele>
        <time>2011-06-17T13:59:33Z</time>
      </trkpt>
      <trkpt lat="45.80618" lon="5.03221">
        <ele>177.636</ele>
        <time>2011-06-17T13:59:36Z</time>
      </trkpt>
      <trkpt lat="45.80591" lon="5.03221">
        <ele>178.435</ele>
        <time>2011-06-17T13:59:41Z</time>
      </trkpt>
      <trkpt lat="45.8057" lon="5.03243">
        <ele>177.893</ele>
        <time>2011-06-17T13:59:46Z</time>
      </trkpt>
      <trkpt lat="45.80564" lon="5.03255">
        <ele>177.764</ele>
        <time>2011-06-17T13:59:48Z</time>
      </trkpt>
      <trkpt lat="45.80537" lon="5.03268">
        <ele>178.975</ele>
        <time>2011-06-17T13:59:54Z</time>
      </trkpt>
      <trkpt lat="45.80521" lon="5.03302">
        <ele>180.903</ele>
        <time>2011-06-17T14:00:03Z</time>
      </trkpt>
      <trkpt lat="45.80526" lon="5.03325">
        <ele>180.978</ele>
        <time>2011-06-17T14:00:07Z</time>
      </trkpt>
      <trkpt lat="45.80535" lon="5.03344">
        <ele>180.859</ele>
        <time>2011-06-17T14:00:11Z</time>
      </trkpt>
      <trkpt lat="45.80535" lon="5.03354">
        <ele>180.903</ele>
        <time>2011-06-17T14:00:13Z</time>
      </trkpt>
      <trkpt lat="45.80544" lon="5.03374">
        <ele>181.048</ele>
        <time>2011-06-17T14:00:17Z</time>
      </trkpt>
      <trkpt lat="45.80548" lon="5.03407">
        <ele>181.072</ele>
        <time>2011-06-17T14:00:22Z</time>
      </trkpt>
      <trkpt lat="45.8056" lon="5.03428">
        <ele>180.704</ele>
        <time>2011-06-17T14:00:26Z</time>
      </trkpt>
      <trkpt lat="45.80567" lon="5.03462">
        <ele>180.947</ele>
        <time>2011-06-17T14:00:31Z</time>
      </trkpt>
      <trkpt lat="45.80571" lon="5.03481">
        <ele>180.929</ele>
        <time>2011-06-17T14:00:34Z</time>
      </trkpt>
      <trkpt lat="45.80569" lon="5.03498">
        <ele>181.212</ele>
        <time>2011-06-17T14:00:37Z</time>
      </trkpt>
      <trkpt lat="45.80574" lon="5.035">
        <ele>181.482</ele>
        <time>2011-06-17T14:00:39Z</time>
      </trkpt>
      <trkpt lat="45.80577" lon="5.03512">
        <ele>180.73</ele>
        <time>2011-06-17T14:00:43Z</time>
      </trkpt>
      <trkpt lat="45.80579" lon="5.03555">
        <ele>179.614</ele>
        <time>2011-06-17T14:00:51Z</time>
      </trkpt>
      <trkpt lat="45.80591" lon="5.03573">
        <ele>180.671</ele>
        <time>2011-06-17T14:00:55Z</time>
      </trkpt>
      <trkpt lat="45.8059" lon="5.03601">
        <ele>180.111</ele>
        <time>2011-06-17T14:01:03Z</time>
      </trkpt>
      <trkpt lat="45.80596" lon="5.03608">
        <ele>180.108</ele>
        <time>2011-06-17T14:01:04Z</time>
      </trkpt>
      <trkpt lat="45.806" lon="5.03613">
        <ele>181.869</ele>
        <time>2011-06-17T14:01:06Z</time>
      </trkpt>
      <trkpt lat="45.80596" lon="5.03629">
        <ele>180.516</ele>
        <time>2011-06-17T14:01:11Z</time>
      </trkpt>
      <trkpt lat="45.80581" lon="5.03629">
        <ele>180.707</ele>
        <time>2011-06-17T14:01:15Z</time>
      </trkpt>
      <trkpt lat="45.80556" lon="5.03619">
        <ele>179.605</ele>
        <time>2011-06-17T14:01:21Z</time>
      </trkpt>
      <trkpt lat="45.80544" lon="5.03604">
        <ele>178.285</ele>
        <time>2011-06-17T14:01:26Z</time>
      </trkpt>
      <trkpt lat="45.80535" lon="5.0359">
        <ele>177.948</ele>
        <time>2011-06-17T14:01:29Z</time>
      </trkpt>
      <trkpt lat="45.80527" lon="5.03581">
        <ele>178.787</ele>
        <time>2011-06-17T14:01:31Z</time>
      </trkpt>
      <trkpt lat="45.80526" lon="5.03583">
        <ele>181.262</ele>
        <time>2011-06-17T14:01:38Z</time>
      </trkpt>
      <trkpt lat="45.80525" lon="5.03592">
        <ele>181.501</ele>
        <time>2011-06-17T14:01:47Z</time>
      </trkpt>
      <trkpt lat="45.80521" lon="5.03597">
        <ele>181.729</ele>
        <time>2011-06-17T14:01:51Z</time>
      </trkpt>
      <trkpt lat="45.80506" lon="5.03645">
        <ele>180.733</ele>
        <time>2011-06-17T14:02:03Z</time>
      </trkpt>
      <trkpt lat="45.80504" lon="5.03678">
        <ele>180.649</ele>
        <time>2011-06-17T14:02:08Z</time>
      </trkpt>
      <trkpt lat="45.80514" lon="5.03797">
        <ele>179.765</ele>
        <time>2011-06-17T14:02:24Z</time>
      </trkpt>
      <trkpt lat="45.80514" lon="5.03827">
        <ele>179.686</ele>
        <time>2011-06-17T14:02:28Z</time>
      </trkpt>
      <trkpt lat="45.80536" lon="5.03847">
        <ele>181.206</ele>
        <time>2011-06-17T14:02:34Z</time>
      </trkpt>
      <trkpt lat="45.80559" lon="5.03848">
        <ele>181.09</ele>
        <time>2011-06-17T14:02:38Z</time>
      </trkpt>
      <trkpt lat="45.80601" lon="5.03845">
        <ele>181.693</ele>
        <time>2011-06-17T14:02:45Z</time>
      </trkpt>
      <trkpt lat="45.80619" lon="5.03857">
        <ele>179.88</ele>
        <time>2011-06-17T14:02:49Z</time>
      </trkpt>
      <trkpt lat="45.80622" lon="5.03863">
        <ele>180.661</ele>
        <time>2011-06-17T14:02:50Z</time>
      </trkpt>
      <trkpt lat="45.80628" lon="5.03877">
        <ele>180.697</ele>
        <time>2011-06-17T14:02:52Z</time>
      </trkpt>
      <trkpt lat="45.80639" lon="5.03889">
        <ele>181.671</ele>
        <time>2011-06-17T14:02:55Z</time>
      </trkpt>
      <trkpt lat="45.80669" lon="5.03917">
        <ele>180.661</ele>
        <time>2011-06-17T14:03:01Z</time>
      </trkpt>
      <trkpt lat="45.80713" lon="5.03952">
        <ele>180.179</ele>
        <time>2011-06-17T14:03:09Z</time>
      </trkpt>
      <trkpt lat="45.80723" lon="5.03982">
        <ele>178.786</ele>
        <time>2011-06-17T14:03:13Z</time>
      </trkpt>
      <trkpt lat="45.80727" lon="5.04031">
        <ele>180.971</ele>
        <time>2011-06-17T14:03:19Z</time>
      </trkpt>
      <trkpt lat="45.80731" lon="5.0405">
        <ele>182.54</ele>
        <time>2011-06-17T14:03:22Z</time>
      </trkpt>
      <trkpt lat="45.80731" lon="5.04087">
        <ele>181.434</ele>
        <time>2011-06-17T14:03:27Z</time>
      </trkpt>
      <trkpt lat="45.80736" lon="5.04124">
        <ele>181.39</ele>
        <time>2011-06-17T14:03:32Z</time>
      </trkpt>
      <trkpt lat="45.80748" lon="5.04161">
        <ele>180.259</ele>
        <time>2011-06-17T14:03:37Z</time>
      </trkpt>
      <trkpt lat="45.80753" lon="5.04175">
        <ele>179.721</ele>
        <time>2011-06-17T14:03:39Z</time>
      </trkpt>
      <trkpt lat="45.80758" lon="5.04199">
        <ele>178.18</ele>
        <time>2011-06-17T14:03:42Z</time>
      </trkpt>
      <trkpt lat="45.80763" lon="5.04231">
        <ele>180.547</ele>
        <time>2011-06-17T14:03:46Z</time>
      </trkpt>
      <trkpt lat="45.80771" lon="5.04273">
        <ele>181.179</ele>
        <time>2011-06-17T14:03:51Z</time>
      </trkpt>
      <trkpt lat="45.80778" lon="5.04298">
        <ele>181.292</ele>
        <time>2011-06-17T14:03:54Z</time>
      </trkpt>
      <trkpt lat="45.80782" lon="5.04332">
        <ele>180.697</ele>
        <time>2011-06-17T14:03:58Z</time>
      </trkpt>
      <trkpt lat="45.8077" lon="5.04391">
        <ele>180.889</ele>
        <time>2011-06-17T14:04:05Z</time>
      </trkpt>
      <trkpt lat="45.80767" lon="5.04519">
        <ele>178.236</ele>
        <time>2011-06-17T14:04:19Z</time>
      </trkpt>
      <trkpt lat="45.80767" lon="5.04536">
        <ele>179.513</ele>
        <time>2011-06-17T14:04:21Z</time>
      </trkpt>
      <trkpt lat="45.80768" lon="5.04645">
        <ele>182.272</ele>
        <time>2011-06-17T14:04:33Z</time>
      </trkpt>
      <trkpt lat="45.80768" lon="5.04725">
        <ele>181.502</ele>
        <time>2011-06-17T14:04:42Z</time>
      </trkpt>
      <trkpt lat="45.8077" lon="5.04743">
        <ele>182.647</ele>
        <time>2011-06-17T14:04:45Z</time>
      </trkpt>
      <trkpt lat="45.80755" lon="5.04756">
        <ele>181.265</ele>
        <time>2011-06-17T14:04:50Z</time>
      </trkpt>
      <trkpt lat="45.80726" lon="5.04758">
        <ele>180.369</ele>
        <time>2011-06-17T14:04:55Z</time>
      </trkpt>
      <trkpt lat="45.80586" lon="5.04776">
        <ele>181.024</ele>
        <time>2011-06-17T14:05:17Z</time>
      </trkpt>
      <trkpt lat="45.80538" lon="5.04784">
        <ele>181.669</ele>
        <time>2011-06-17T14:05:25Z</time>
      </trkpt>
      <trkpt lat="45.80509" lon="5.04766">
        <ele>181.56</ele>
        <time>2011-06-17T14:05:30Z</time>
      </trkpt>
      <trkpt lat="45.80475" lon="5.04715">
        <ele>180.952</ele>
        <time>2011-06-17T14:05:38Z</time>
      </trkpt>
      <trkpt lat="45.80461" lon="5.04698">
        <ele>181.517</ele>
        <time>2011-06-17T14:05:41Z</time>
      </trkpt>
      <trkpt lat="45.80441" lon="5.0468">
        <ele>181.529</ele>
        <time>2011-06-17T14:05:45Z</time>
      </trkpt>
      <trkpt lat="45.80432" lon="5.04668">
        <ele>179.951</ele>
        <time>2011-06-17T14:05:47Z</time>
      </trkpt>
      <trkpt lat="45.80425" lon="5.04654">
        <ele>180.404</ele>
        <time>2011-06-17T14:05:49Z</time>
      </trkpt>
      <trkpt lat="45.80417" lon="5.04611">
        <ele>180.202</ele>
        <time>2011-06-17T14:05:54Z</time>
      </trkpt>
      <trkpt lat="45.80413" lon="5.04594">
        <ele>180.17</ele>
        <time>2011-06-17T14:05:56Z</time>
      </trkpt>
      <trkpt lat="45.80351" lon="5.04492">
        <ele>180.001</ele>
        <time>2011-06-17T14:06:11Z</time>
      </trkpt>
      <trkpt lat="45.80301" lon="5.04411">
        <ele>180.804</ele>
        <time>2011-06-17T14:06:24Z</time>
      </trkpt>
      <trkpt lat="45.80287" lon="5.04391">
        <ele>180.958</ele>
        <time>2011-06-17T14:06:28Z</time>
      </trkpt>
      <trkpt lat="45.80281" lon="5.04381">
        <ele>180.779</ele>
        <time>2011-06-17T14:06:30Z</time>
      </trkpt>
      <trkpt lat="45.80287" lon="5.04367">
        <ele>181.305</ele>
        <time>2011-06-17T14:06:34Z</time>
      </trkpt>
      <trkpt lat="45.80319" lon="5.04342">
        <ele>181.24</ele>
        <time>2011-06-17T14:06:45Z</time>
      </trkpt>
      <trkpt lat="45.8032" lon="5.04342">
        <ele>181.405</ele>
        <time>2011-06-17T14:07:56Z</time>
      </trkpt>
      <trkpt lat="45.80318" lon="5.04328">
        <ele>181.704</ele>
        <time>2011-06-17T14:08:03Z</time>
      </trkpt>
      <trkpt lat="45.80324" lon="5.04282">
        <ele>181.497</ele>
        <time>2011-06-17T14:08:12Z</time>
      </trkpt>
      <trkpt lat="45.80324" lon="5.04275">
        <ele>181.737</ele>
        <time>2011-06-17T14:08:14Z</time>
      </trkpt>
      <trkpt lat="45.80327" lon="5.04259">
        <ele>182.873</ele>
        <time>2011-06-17T14:08:18Z</time>
      </trkpt>
      <trkpt lat="45.80334" lon="5.04238">
        <ele>182.318</ele>
        <time>2011-06-17T14:08:22Z</time>
      </trkpt>
      <trkpt lat="45.80349" lon="5.04235">
        <ele>182.476</ele>
        <time>2011-06-17T14:08:26Z</time>
      </trkpt>
      <trkpt lat="45.80372" lon="5.04219">
        <ele>181.249</ele>
        <time>2011-06-17T14:08:33Z</time>
      </trkpt>
      <trkpt lat="45.8038" lon="5.04212">
        <ele>182.02</ele>
        <time>2011-06-17T14:08:38Z</time>
      </trkpt>
      <trkpt lat="45.80394" lon="5.04208">
        <ele>181.212</ele>
        <time>2011-06-17T14:08:42Z</time>
      </trkpt>
      <trkpt lat="45.80404" lon="5.04198">
        <ele>181.292</ele>
        <time>2011-06-17T14:08:45Z</time>
      </trkpt>
      <trkpt lat="45.80425" lon="5.04182">
        <ele>180.323</ele>
        <time>2011-06-17T14:08:50Z</time>
      </trkpt>
      <trkpt lat="45.80439" lon="5.04159">
        <ele>179.881</ele>
        <time>2011-06-17T14:08:54Z</time>
      </trkpt>
      <trkpt lat="45.80443" lon="5.04146">
        <ele>179.721</ele>
        <time>2011-06-17T14:08:56Z</time>
      </trkpt>
      <trkpt lat="45.80451" lon="5.04128">
        <ele>179.331</ele>
        <time>2011-06-17T14:08:59Z</time>
      </trkpt>
      <trkpt lat="45.80452" lon="5.04114">
        <ele>180.738</ele>
        <time>2011-06-17T14:09:01Z</time>
      </trkpt>
      <trkpt lat="45.80451" lon="5.041">
        <ele>180.709</ele>
        <time>2011-06-17T14:09:03Z</time>
      </trkpt>
      <trkpt lat="45.80452" lon="5.04078">
        <ele>180.563</ele>
        <time>2011-06-17T14:09:06Z</time>
      </trkpt>
      <trkpt lat="45.80459" lon="5.0405">
        <ele>181.321</ele>
        <time>2011-06-17T14:09:10Z</time>
      </trkpt>
      <trkpt lat="45.80461" lon="5.0402">
        <ele>181.404</ele>
        <time>2011-06-17T14:09:14Z</time>
      </trkpt>
      <trkpt lat="45.80469" lon="5.03989">
        <ele>179.36</ele>
        <time>2011-06-17T14:09:18Z</time>
      </trkpt>
      <trkpt lat="45.80473" lon="5.03974">
        <ele>179.59</ele>
        <time>2011-06-17T14:09:20Z</time>
      </trkpt>
      <trkpt lat="45.80489" lon="5.03972">
        <ele>180.351</ele>
        <time>2011-06-17T14:09:24Z</time>
      </trkpt>
      <trkpt lat="45.80513" lon="5.0398">
        <ele>180.354</ele>
        <time>2011-06-17T14:09:29Z</time>
      </trkpt>
      <trkpt lat="45.80519" lon="5.03972">
        <ele>180.87</ele>
        <time>2011-06-17T14:09:32Z</time>
      </trkpt>
      <trkpt lat="45.80519" lon="5.03939">
        <ele>180.063</ele>
        <time>2011-06-17T14:09:38Z</time>
      </trkpt>
      <trkpt lat="45.80519" lon="5.0392">
        <ele>180.546</ele>
        <time>2011-06-17T14:09:41Z</time>
      </trkpt>
      <trkpt lat="45.805" lon="5.03861">
        <ele>180.26</ele>
        <time>2011-06-17T14:09:52Z</time>
      </trkpt>
      <trkpt lat="45.80493" lon="5.0383">
        <ele>179.762</ele>
        <time>2011-06-17T14:09:59Z</time>
      </trkpt>
      <trkpt lat="45.80475" lon="5.03775">
        <ele>180.127</ele>
        <time>2011-06-17T14:10:12Z</time>
      </trkpt>
      <trkpt lat="45.80478" lon="5.03755">
        <ele>180.453</ele>
        <time>2011-06-17T14:10:18Z</time>
      </trkpt>
      <trkpt lat="45.80483" lon="5.03749">
        <ele>181.245</ele>
        <time>2011-06-17T14:10:21Z</time>
      </trkpt>
      <trkpt lat="45.80483" lon="5.03735">
        <ele>181.068</ele>
        <time>2011-06-17T14:10:25Z</time>
      </trkpt>
      <trkpt lat="45.80485" lon="5.03689">
        <ele>181.239</ele>
        <time>2011-06-17T14:10:35Z</time>
      </trkpt>
      <trkpt lat="45.80486" lon="5.03684">
        <ele>181.242</ele>
        <time>2011-06-17T14:10:36Z</time>
      </trkpt>
      <trkpt lat="45.80489" lon="5.03632">
        <ele>181.097</ele>
        <time>2011-06-17T14:10:46Z</time>
      </trkpt>
      <trkpt lat="45.80492" lon="5.03617">
        <ele>180.879</ele>
        <time>2011-06-17T14:10:49Z</time>
      </trkpt>
      <trkpt lat="45.80484" lon="5.03597">
        <ele>181.718</ele>
        <time>2011-06-17T14:10:55Z</time>
      </trkpt>
      <trkpt lat="45.80476" lon="5.03579">
        <ele>181.173</ele>
        <time>2011-06-17T14:10:59Z</time>
      </trkpt>
      <trkpt lat="45.80476" lon="5.03557">
        <ele>181.475</ele>
        <time>2011-06-17T14:11:03Z</time>
      </trkpt>
      <trkpt lat="45.8047" lon="5.03533">
        <ele>181.12</ele>
        <time>2011-06-17T14:11:07Z</time>
      </trkpt>
      <trkpt lat="45.80465" lon="5.035">
        <ele>181.278</ele>
        <time>2011-06-17T14:11:12Z</time>
      </trkpt>
      <trkpt lat="45.80457" lon="5.0348">
        <ele>179.734</ele>
        <time>2011-06-17T14:11:16Z</time>
      </trkpt>
      <trkpt lat="45.80455" lon="5.03459">
        <ele>179.231</ele>
        <time>2011-06-17T14:11:19Z</time>
      </trkpt>
      <trkpt lat="45.8046" lon="5.03399">
        <ele>179.217</ele>
        <time>2011-06-17T14:11:28Z</time>
      </trkpt>
      <trkpt lat="45.80461" lon="5.0338">
        <ele>179.29</ele>
        <time>2011-06-17T14:11:31Z</time>
      </trkpt>
      <trkpt lat="45.80462" lon="5.03367">
        <ele>179.411</ele>
        <time>2011-06-17T14:11:33Z</time>
      </trkpt>
      <trkpt lat="45.80449" lon="5.0331">
        <ele>178.388</ele>
        <time>2011-06-17T14:11:41Z</time>
      </trkpt>
      <trkpt lat="45.80436" lon="5.03288">
        <ele>178.539</ele>
        <time>2011-06-17T14:11:45Z</time>
      </trkpt>
      <trkpt lat="45.80417" lon="5.03282">
        <ele>179.695</ele>
        <time>2011-06-17T14:11:50Z</time>
      </trkpt>
      <trkpt lat="45.80378" lon="5.03286">
        <ele>181.239</ele>
        <time>2011-06-17T14:12:00Z</time>
      </trkpt>
      <trkpt lat="45.8036" lon="5.03271">
        <ele>180.743</ele>
        <time>2011-06-17T14:12:06Z</time>
      </trkpt>
      <trkpt lat="45.80359" lon="5.03259">
        <ele>180.591</ele>
        <time>2011-06-17T14:12:08Z</time>
      </trkpt>
      <trkpt lat="45.80373" lon="5.03225">
        <ele>181.165</ele>
        <time>2011-06-17T14:12:14Z</time>
      </trkpt>
      <trkpt lat="45.80381" lon="5.03217">
        <ele>180.974</ele>
        <time>2011-06-17T14:12:16Z</time>
      </trkpt>
      <trkpt lat="45.8037" lon="5.03194">
        <ele>180.278</ele>
        <time>2011-06-17T14:12:22Z</time>
      </trkpt>
      <trkpt lat="45.8034" lon="5.0316">
        <ele>179.271</ele>
        <time>2011-06-17T14:12:29Z</time>
      </trkpt>
      <trkpt lat="45.80319" lon="5.03132">
        <ele>178.923</ele>
        <time>2011-06-17T14:12:34Z</time>
      </trkpt>
      <trkpt lat="45.80307" lon="5.03103">
        <ele>179.098</ele>
        <time>2011-06-17T14:12:38Z</time>
      </trkpt>
      <trkpt lat="45.80277" lon="5.02946">
        <ele>178.942</ele>
        <time>2011-06-17T14:12:57Z</time>
      </trkpt>
      <trkpt lat="45.80265" lon="5.02873">
        <ele>178.676</ele>
        <time>2011-06-17T14:13:06Z</time>
      </trkpt>
      <trkpt lat="45.80258" lon="5.02857">
        <ele>179.081</ele>
        <time>2011-06-17T14:13:09Z</time>
      </trkpt>
      <trkpt lat="45.80268" lon="5.02801">
        <ele>180.214</ele>
        <time>2011-06-17T14:13:18Z</time>
      </trkpt>
      <trkpt lat="45.80283" lon="5.02732">
        <ele>180.764</ele>
        <time>2011-06-17T14:13:28Z</time>
      </trkpt>
      <trkpt lat="45.8029" lon="5.02706">
        <ele>181.356</ele>
        <time>2011-06-17T14:13:32Z</time>
      </trkpt>
      <trkpt lat="45.80293" lon="5.02672">
        <ele>181.574</ele>
        <time>2011-06-17T14:13:37Z</time>
      </trkpt>
      <trkpt lat="45.80271" lon="5.0251">
        <ele>180.861</ele>
        <time>2011-06-17T14:13:59Z</time>
      </trkpt>
      <trkpt lat="45.80268" lon="5.02494">
        <ele>181.469</ele>
        <time>2011-06-17T14:14:01Z</time>
      </trkpt>
      <trkpt lat="45.80261" lon="5.02472">
        <ele>181.055</ele>
        <time>2011-06-17T14:14:04Z</time>
      </trkpt>
      <trkpt lat="45.80262" lon="5.0243">
        <ele>180.91</ele>
        <time>2011-06-17T14:14:09Z</time>
      </trkpt>
      <trkpt lat="45.80243" lon="5.02366">
        <ele>180.917</ele>
        <time>2011-06-17T14:14:18Z</time>
      </trkpt>
      <trkpt lat="45.80207" lon="5.02329">
        <ele>180.844</ele>
        <time>2011-06-17T14:14:26Z</time>
      </trkpt>
      <trkpt lat="45.80192" lon="5.02295">
        <ele>180.989</ele>
        <time>2011-06-17T14:14:31Z</time>
      </trkpt>
      <trkpt lat="45.80189" lon="5.02279">
        <ele>181.867</ele>
        <time>2011-06-17T14:14:33Z</time>
      </trkpt>
      <trkpt lat="45.80183" lon="5.02265">
        <ele>180.376</ele>
        <time>2011-06-17T14:14:35Z</time>
      </trkpt>
      <trkpt lat="45.80171" lon="5.02237">
        <ele>182.464</ele>
        <time>2011-06-17T14:14:39Z</time>
      </trkpt>
      <trkpt lat="45.80147" lon="5.02193">
        <ele>179.784</ele>
        <time>2011-06-17T14:14:46Z</time>
      </trkpt>
      <trkpt lat="45.8014" lon="5.02173">
        <ele>181.183</ele>
        <time>2011-06-17T14:14:49Z</time>
      </trkpt>
      <trkpt lat="45.80124" lon="5.02137">
        <ele>181.577</ele>
        <time>2011-06-17T14:14:54Z</time>
      </trkpt>
      <trkpt lat="45.80062" lon="5.02058">
        <ele>181.397</ele>
        <time>2011-06-17T14:15:09Z</time>
      </trkpt>
      <trkpt lat="45.80031" lon="5.02022">
        <ele>181.486</ele>
        <time>2011-06-17T14:15:17Z</time>
      </trkpt>
      <trkpt lat="45.80013" lon="5.02013">
        <ele>180.743</ele>
        <time>2011-06-17T14:15:21Z</time>
      </trkpt>
      <trkpt lat="45.79993" lon="5.02009">
        <ele>180.93</ele>
        <time>2011-06-17T14:15:25Z</time>
      </trkpt>
      <trkpt lat="45.79923" lon="5.01966">
        <ele>181.706</ele>
        <time>2011-06-17T14:15:39Z</time>
      </trkpt>
      <trkpt lat="45.79897" lon="5.01941">
        <ele>180.988</ele>
        <time>2011-06-17T14:15:45Z</time>
      </trkpt>
      <trkpt lat="45.79889" lon="5.01933">
        <ele>182.088</ele>
        <time>2011-06-17T14:15:47Z</time>
      </trkpt>
      <trkpt lat="45.79884" lon="5.01929">
        <ele>182.721</ele>
        <time>2011-06-17T14:15:48Z</time>
      </trkpt>
      <trkpt lat="45.79845" lon="5.01887">
        <ele>181.796</ele>
        <time>2011-06-17T14:15:57Z</time>
      </trkpt>
      <trkpt lat="45.79814" lon="5.0189">
        <ele>182.735</ele>
        <time>2011-06-17T14:16:04Z</time>
      </trkpt>
      <trkpt lat="45.79805" lon="5.01906">
        <ele>183.172</ele>
        <time>2011-06-17T14:16:07Z</time>
      </trkpt>
      <trkpt lat="45.79792" lon="5.0194">
        <ele>180.452</ele>
        <time>2011-06-17T14:16:13Z</time>
      </trkpt>
      <trkpt lat="45.7979" lon="5.01952">
        <ele>180.57</ele>
        <time>2011-06-17T14:16:15Z</time>
      </trkpt>
      <trkpt lat="45.79785" lon="5.01961">
        <ele>181.713</ele>
        <time>2011-06-17T14:16:17Z</time>
      </trkpt>
      <trkpt lat="45.79778" lon="5.01961">
        <ele>184.136</ele>
        <time>2011-06-17T14:16:19Z</time>
      </trkpt>
      <trkpt lat="45.79775" lon="5.01959">
        <ele>184.374</ele>
        <time>2011-06-17T14:16:20Z</time>
      </trkpt>
      <trkpt lat="45.7976" lon="5.01944">
        <ele>181.381</ele>
        <time>2011-06-17T14:16:24Z</time>
      </trkpt>
      <trkpt lat="45.79744" lon="5.01925">
        <ele>182.558</ele>
        <time>2011-06-17T14:16:28Z</time>
      </trkpt>
      <trkpt lat="45.79699" lon="5.01879">
        <ele>181.402</ele>
        <time>2011-06-17T14:16:39Z</time>
      </trkpt>
      <trkpt lat="45.79698" lon="5.01851">
        <ele>181.037</ele>
        <time>2011-06-17T14:16:44Z</time>
      </trkpt>
      <trkpt lat="45.79703" lon="5.01828">
        <ele>181.131</ele>
        <time>2011-06-17T14:16:48Z</time>
      </trkpt>
      <trkpt lat="45.79705" lon="5.01772">
        <ele>180.231</ele>
        <time>2011-06-17T14:16:56Z</time>
      </trkpt>
      <trkpt lat="45.79722" lon="5.01705">
        <ele>181.043</ele>
        <time>2011-06-17T14:17:06Z</time>
      </trkpt>
      <trkpt lat="45.79726" lon="5.01683">
        <ele>180.757</ele>
        <time>2011-06-17T14:17:09Z</time>
      </trkpt>
      <trkpt lat="45.79735" lon="5.01664">
        <ele>181.18</ele>
        <time>2011-06-17T14:17:12Z</time>
      </trkpt>
      <trkpt lat="45.79745" lon="5.01637">
        <ele>182.038</ele>
        <time>2011-06-17T14:17:16Z</time>
      </trkpt>
      <trkpt lat="45.79753" lon="5.01621">
        <ele>182.258</ele>
        <time>2011-06-17T14:17:19Z</time>
      </trkpt>
      <trkpt lat="45.7977" lon="5.01614">
        <ele>182.531</ele>
        <time>2011-06-17T14:17:23Z</time>
      </trkpt>
      <trkpt lat="45.79806" lon="5.01584">
        <ele>181.144</ele>
        <time>2011-06-17T14:17:31Z</time>
      </trkpt>
      <trkpt lat="45.79831" lon="5.01575">
        <ele>181.222</ele>
        <time>2011-06-17T14:17:36Z</time>
      </trkpt>
      <trkpt lat="45.79856" lon="5.0158">
        <ele>181.177</ele>
        <time>2011-06-17T14:17:41Z</time>
      </trkpt>
      <trkpt lat="45.79866" lon="5.01579">
        <ele>180.846</ele>
        <time>2011-06-17T14:17:43Z</time>
      </trkpt>
      <trkpt lat="45.79889" lon="5.01579">
        <ele>181.038</ele>
        <time>2011-06-17T14:17:47Z</time>
      </trkpt>
      <trkpt lat="45.7991" lon="5.01583">
        <ele>180.936</ele>
        <time>2011-06-17T14:17:52Z</time>
      </trkpt>
      <trkpt lat="45.79939" lon="5.01564">
        <ele>180.973</ele>
        <time>2011-06-17T14:17:59Z</time>
      </trkpt>
      <trkpt lat="45.79973" lon="5.01533">
        <ele>180.556</ele>
        <time>2011-06-17T14:18:09Z</time>
      </trkpt>
      <trkpt lat="45.79978" lon="5.01529">
        <ele>180.556</ele>
        <time>2011-06-17T14:18:10Z</time>
      </trkpt>
      <trkpt lat="45.79992" lon="5.01513">
        <ele>180.19</ele>
        <time>2011-06-17T14:18:14Z</time>
      </trkpt>
      <trkpt lat="45.80006" lon="5.01499">
        <ele>180.555</ele>
        <time>2011-06-17T14:18:18Z</time>
      </trkpt>
      <trkpt lat="45.8002" lon="5.01476">
        <ele>181.753</ele>
        <time>2011-06-17T14:18:26Z</time>
      </trkpt>
      <trkpt lat="45.80028" lon="5.01438">
        <ele>180.595</ele>
        <time>2011-06-17T14:18:32Z</time>
      </trkpt>
      <trkpt lat="45.80025" lon="5.01381">
        <ele>180.201</ele>
        <time>2011-06-17T14:18:40Z</time>
      </trkpt>
      <trkpt lat="45.80019" lon="5.01342">
        <ele>180.399</ele>
        <time>2011-06-17T14:18:45Z</time>
      </trkpt>
      <trkpt lat="45.80012" lon="5.01311">
        <ele>180.217</ele>
        <time>2011-06-17T14:18:49Z</time>
      </trkpt>
      <trkpt lat="45.80012" lon="5.01278">
        <ele>179.621</ele>
        <time>2011-06-17T14:18:54Z</time>
      </trkpt>
      <trkpt lat="45.80007" lon="5.01259">
        <ele>178.786</ele>
        <time>2011-06-17T14:18:57Z</time>
      </trkpt>
      <trkpt lat="45.8" lon="5.01244">
        <ele>179.415</ele>
        <time>2011-06-17T14:19:00Z</time>
      </trkpt>
      <trkpt lat="45.79991" lon="5.01222">
        <ele>180.3</ele>
        <time>2011-06-17T14:19:04Z</time>
      </trkpt>
      <trkpt lat="45.79984" lon="5.01212">
        <ele>180.208</ele>
        <time>2011-06-17T14:19:07Z</time>
      </trkpt>
      <trkpt lat="45.79971" lon="5.01193">
        <ele>180.453</ele>
        <time>2011-06-17T14:19:12Z</time>
      </trkpt>
      <trkpt lat="45.79957" lon="5.01185">
        <ele>180.71</ele>
        <time>2011-06-17T14:19:17Z</time>
      </trkpt>
      <trkpt lat="45.79926" lon="5.01136">
        <ele>179.47</ele>
        <time>2011-06-17T14:19:27Z</time>
      </trkpt>
      <trkpt lat="45.79913" lon="5.01116">
        <ele>180.556</ele>
        <time>2011-06-17T14:19:31Z</time>
      </trkpt>
      <trkpt lat="45.79898" lon="5.01085">
        <ele>179.956</ele>
        <time>2011-06-17T14:19:39Z</time>
      </trkpt>
      <trkpt lat="45.79891" lon="5.01076">
        <ele>182.042</ele>
        <time>2011-06-17T14:19:51Z</time>
      </trkpt>
      <trkpt lat="45.79885" lon="5.01083">
        <ele>184.84</ele>
        <time>2011-06-17T14:20:05Z</time>
      </trkpt>
      <trkpt lat="45.79884" lon="5.01085">
        <ele>184.668</ele>
        <time>2011-06-17T14:20:07Z</time>
      </trkpt>
      <trkpt lat="45.79877" lon="5.0109">
        <ele>184.997</ele>
        <time>2011-06-17T14:20:10Z</time>
      </trkpt>
      <trkpt lat="45.7987" lon="5.01102">
        <ele>183.92</ele>
        <time>2011-06-17T14:20:14Z</time>
      </trkpt>
      <trkpt lat="45.79849" lon="5.01102">
        <ele>182.851</ele>
        <time>2011-06-17T14:20:20Z</time>
      </trkpt>
      <trkpt lat="45.7984" lon="5.0109">
        <ele>183.825</ele>
        <time>2011-06-17T14:20:23Z</time>
      </trkpt>
      <trkpt lat="45.79833" lon="5.01072">
        <ele>184.005</ele>
        <time>2011-06-17T14:20:26Z</time>
      </trkpt>
      <trkpt lat="45.79823" lon="5.01055">
        <ele>183.581</ele>
        <time>2011-06-17T14:20:29Z</time>
      </trkpt>
      <trkpt lat="45.79803" lon="5.0101">
        <ele>182.714</ele>
        <time>2011-06-17T14:20:36Z</time>
      </trkpt>
      <trkpt lat="45.79793" lon="5.00986">
        <ele>183.94</ele>
        <time>2011-06-17T14:20:44Z</time>
      </trkpt>
      <trkpt lat="45.79793" lon="5.00986">
        <ele>183.84</ele>
        <time>2011-06-17T14:20:59Z</time>
      </trkpt>
      <trkpt lat="45.79795" lon="5.0098">
        <ele>183.953</ele>
        <time>2011-06-17T14:21:03Z</time>
      </trkpt>
      <trkpt lat="45.79795" lon="5.00954">
        <ele>183.648</ele>
        <time>2011-06-17T14:21:09Z</time>
      </trkpt>
      <trkpt lat="45.79783" lon="5.00928">
        <ele>184.202</ele>
        <time>2011-06-17T14:21:14Z</time>
      </trkpt>
      <trkpt lat="45.79759" lon="5.00883">
        <ele>183.258</ele>
        <time>2011-06-17T14:21:22Z</time>
      </trkpt>
      <trkpt lat="45.79742" lon="5.00866">
        <ele>183.82</ele>
        <time>2011-06-17T14:21:26Z</time>
      </trkpt>
      <trkpt lat="45.79735" lon="5.0084">
        <ele>182.946</ele>
        <time>2011-06-17T14:21:30Z</time>
      </trkpt>
      <trkpt lat="45.79729" lon="5.00769">
        <ele>184.806</ele>
        <time>2011-06-17T14:21:40Z</time>
      </trkpt>
      <trkpt lat="45.79721" lon="5.00723">
        <ele>183.614</ele>
        <time>2011-06-17T14:21:46Z</time>
      </trkpt>
      <trkpt lat="45.79716" lon="5.00699">
        <ele>183.354</ele>
        <time>2011-06-17T14:21:49Z</time>
      </trkpt>
      <trkpt lat="45.79703" lon="5.00664">
        <ele>183.622</ele>
        <time>2011-06-17T14:21:54Z</time>
      </trkpt>
      <trkpt lat="45.7969" lon="5.00628">
        <ele>183.335</ele>
        <time>2011-06-17T14:21:59Z</time>
      </trkpt>
      <trkpt lat="45.79684" lon="5.00605">
        <ele>182.168</ele>
        <time>2011-06-17T14:22:02Z</time>
      </trkpt>
      <trkpt lat="45.79671" lon="5.00566">
        <ele>182.948</ele>
        <time>2011-06-17T14:22:09Z</time>
      </trkpt>
      <trkpt lat="45.79688" lon="5.00505">
        <ele>184.219</ele>
        <time>2011-06-17T14:22:21Z</time>
      </trkpt>
      <trkpt lat="45.79687" lon="5.005">
        <ele>184.261</ele>
        <time>2011-06-17T14:22:22Z</time>
      </trkpt>
      <trkpt lat="45.79677" lon="5.0048">
        <ele>183.584</ele>
        <time>2011-06-17T14:22:26Z</time>
      </trkpt>
      <trkpt lat="45.79671" lon="5.00449">
        <ele>184.121</ele>
        <time>2011-06-17T14:22:31Z</time>
      </trkpt>
      <trkpt lat="45.79667" lon="5.00422">
        <ele>183.968</ele>
        <time>2011-06-17T14:22:35Z</time>
      </trkpt>
      <trkpt lat="45.79652" lon="5.00334">
        <ele>183.375</ele>
        <time>2011-06-17T14:22:47Z</time>
      </trkpt>
      <trkpt lat="45.79635" lon="5.00251">
        <ele>182.144</ele>
        <time>2011-06-17T14:22:58Z</time>
      </trkpt>
      <trkpt lat="45.79638" lon="5.00209">
        <ele>182.622</ele>
        <time>2011-06-17T14:23:04Z</time>
      </trkpt>
      <trkpt lat="45.79645" lon="5.00175">
        <ele>183.67</ele>
        <time>2011-06-17T14:23:09Z</time>
      </trkpt>
      <trkpt lat="45.79644" lon="5.0011">
        <ele>183.71</ele>
        <time>2011-06-17T14:23:19Z</time>
      </trkpt>
      <trkpt lat="45.79645" lon="5.00085">
        <ele>183.211</ele>
        <time>2011-06-17T14:23:23Z</time>
      </trkpt>
      <trkpt lat="45.79646" lon="5.00064">
        <ele>182.912</ele>
        <time>2011-06-17T14:23:26Z</time>
      </trkpt>
      <trkpt lat="45.7965" lon="5.00027">
        <ele>182.846</ele>
        <time>2011-06-17T14:23:31Z</time>
      </trkpt>
      <trkpt lat="45.79654" lon="5.00004">
        <ele>184.095</ele>
        <time>2011-06-17T14:23:34Z</time>
      </trkpt>
      <trkpt lat="45.79682" lon="4.99895">
        <ele>182.839</ele>
        <time>2011-06-17T14:23:47Z</time>
      </trkpt>
      <trkpt lat="45.79695" lon="4.99862">
        <ele>183.792</ele>
        <time>2011-06-17T14:23:51Z</time>
      </trkpt>
      <trkpt lat="45.79707" lon="4.99841">
        <ele>184.032</ele>
        <time>2011-06-17T14:23:54Z</time>
      </trkpt>
      <trkpt lat="45.79723" lon="4.99814">
        <ele>184.145</ele>
        <time>2011-06-17T14:23:58Z</time>
      </trkpt>
      <trkpt lat="45.79738" lon="4.99799">
        <ele>183.297</ele>
        <time>2011-06-17T14:24:01Z</time>
      </trkpt>
      <trkpt lat="45.7977" lon="4.99741">
        <ele>182.297</ele>
        <time>2011-06-17T14:24:10Z</time>
      </trkpt>
      <trkpt lat="45.79779" lon="4.99719">
        <ele>182.807</ele>
        <time>2011-06-17T14:24:13Z</time>
      </trkpt>
      <trkpt lat="45.79789" lon="4.99698">
        <ele>183.379</ele>
        <time>2011-06-17T14:24:16Z</time>
      </trkpt>
      <trkpt lat="45.79797" lon="4.99676">
        <ele>183.162</ele>
        <time>2011-06-17T14:24:19Z</time>
      </trkpt>
      <trkpt lat="45.79817" lon="4.99654">
        <ele>183.369</ele>
        <time>2011-06-17T14:24:24Z</time>
      </trkpt>
      <trkpt lat="45.79845" lon="4.99625">
        <ele>184.355</ele>
        <time>2011-06-17T14:24:30Z</time>
      </trkpt>
      <trkpt lat="45.79873" lon="4.99591">
        <ele>184.708</ele>
        <time>2011-06-17T14:24:37Z</time>
      </trkpt>
      <trkpt lat="45.79898" lon="4.99545">
        <ele>184.678</ele>
        <time>2011-06-17T14:24:47Z</time>
      </trkpt>
      <trkpt lat="45.79915" lon="4.99527">
        <ele>183.39</ele>
        <time>2011-06-17T14:24:51Z</time>
      </trkpt>
      <trkpt lat="45.79983" lon="4.99458">
        <ele>183.535</ele>
        <time>2011-06-17T14:25:06Z</time>
      </trkpt>
      <trkpt lat="45.80036" lon="4.99384">
        <ele>182.229</ele>
        <time>2011-06-17T14:25:18Z</time>
      </trkpt>
      <trkpt lat="45.80071" lon="4.99334">
        <ele>182.267</ele>
        <time>2011-06-17T14:25:26Z</time>
      </trkpt>
      <trkpt lat="45.80078" lon="4.99321">
        <ele>182.349</ele>
        <time>2011-06-17T14:25:28Z</time>
      </trkpt>
      <trkpt lat="45.80092" lon="4.9931">
        <ele>182.104</ele>
        <time>2011-06-17T14:25:31Z</time>
      </trkpt>
      <trkpt lat="45.80101" lon="4.99292">
        <ele>182.788</ele>
        <time>2011-06-17T14:25:35Z</time>
      </trkpt>
      <trkpt lat="45.80105" lon="4.99282">
        <ele>183.171</ele>
        <time>2011-06-17T14:25:37Z</time>
      </trkpt>
      <trkpt lat="45.80134" lon="4.99235">
        <ele>182.064</ele>
        <time>2011-06-17T14:25:46Z</time>
      </trkpt>
      <trkpt lat="45.80146" lon="4.99216">
        <ele>181.371</ele>
        <time>2011-06-17T14:25:49Z</time>
      </trkpt>
      <trkpt lat="45.8017" lon="4.99167">
        <ele>182.998</ele>
        <time>2011-06-17T14:25:56Z</time>
      </trkpt>
      <trkpt lat="45.80186" lon="4.99102">
        <ele>181.62</ele>
        <time>2011-06-17T14:26:04Z</time>
      </trkpt>
      <trkpt lat="45.80194" lon="4.99081">
        <ele>183.362</ele>
        <time>2011-06-17T14:26:07Z</time>
      </trkpt>
      <trkpt lat="45.80198" lon="4.9905">
        <ele>181.948</ele>
        <time>2011-06-17T14:26:11Z</time>
      </trkpt>
      <trkpt lat="45.80203" lon="4.99027">
        <ele>181.208</ele>
        <time>2011-06-17T14:26:14Z</time>
      </trkpt>
      <trkpt lat="45.80204" lon="4.98996">
        <ele>180.755</ele>
        <time>2011-06-17T14:26:18Z</time>
      </trkpt>
      <trkpt lat="45.80204" lon="4.98973">
        <ele>180.768</ele>
        <time>2011-06-17T14:26:21Z</time>
      </trkpt>
      <trkpt lat="45.802" lon="4.98886">
        <ele>183.095</ele>
        <time>2011-06-17T14:26:32Z</time>
      </trkpt>
      <trkpt lat="45.80182" lon="4.98817">
        <ele>182.655</ele>
        <time>2011-06-17T14:26:41Z</time>
      </trkpt>
      <trkpt lat="45.80174" lon="4.98793">
        <ele>182.502</ele>
        <time>2011-06-17T14:26:44Z</time>
      </trkpt>
      <trkpt lat="45.80169" lon="4.98769">
        <ele>181.76</ele>
        <time>2011-06-17T14:26:47Z</time>
      </trkpt>
      <trkpt lat="45.80173" lon="4.98749">
        <ele>182.762</ele>
        <time>2011-06-17T14:26:51Z</time>
      </trkpt>
      <trkpt lat="45.80177" lon="4.98746">
        <ele>182.898</ele>
        <time>2011-06-17T14:26:52Z</time>
      </trkpt>
      <trkpt lat="45.80202" lon="4.98724">
        <ele>183.148</ele>
        <time>2011-06-17T14:26:59Z</time>
      </trkpt>
      <trkpt lat="45.80215" lon="4.98709">
        <ele>182.539</ele>
        <time>2011-06-17T14:27:02Z</time>
      </trkpt>
      <trkpt lat="45.8023" lon="4.9869">
        <ele>182.264</ele>
        <time>2011-06-17T14:27:06Z</time>
      </trkpt>
      <trkpt lat="45.80252" lon="4.98671">
        <ele>182.731</ele>
        <time>2011-06-17T14:27:12Z</time>
      </trkpt>
      <trkpt lat="45.80272" lon="4.98643">
        <ele>182.592</ele>
        <time>2011-06-17T14:27:17Z</time>
      </trkpt>
      <trkpt lat="45.8028" lon="4.98616">
        <ele>182.751</ele>
        <time>2011-06-17T14:27:21Z</time>
      </trkpt>
      <trkpt lat="45.80281" lon="4.98602">
        <ele>182.489</ele>
        <time>2011-06-17T14:27:23Z</time>
      </trkpt>
      <trkpt lat="45.80283" lon="4.98587">
        <ele>182.782</ele>
        <time>2011-06-17T14:27:25Z</time>
      </trkpt>
      <trkpt lat="45.80292" lon="4.9856">
        <ele>181.935</ele>
        <time>2011-06-17T14:27:29Z</time>
      </trkpt>
      <trkpt lat="45.80304" lon="4.98518">
        <ele>182.276</ele>
        <time>2011-06-17T14:27:35Z</time>
      </trkpt>
      <trkpt lat="45.80306" lon="4.98494">
        <ele>182.774</ele>
        <time>2011-06-17T14:27:38Z</time>
      </trkpt>
      <trkpt lat="45.80309" lon="4.98464">
        <ele>183.038</ele>
        <time>2011-06-17T14:27:42Z</time>
      </trkpt>
      <trkpt lat="45.80321" lon="4.9843">
        <ele>182.977</ele>
        <time>2011-06-17T14:27:47Z</time>
      </trkpt>
      <trkpt lat="45.80328" lon="4.98417">
        <ele>181.716</ele>
        <time>2011-06-17T14:27:49Z</time>
      </trkpt>
      <trkpt lat="45.8033" lon="4.98409">
        <ele>181.154</ele>
        <time>2011-06-17T14:27:50Z</time>
      </trkpt>
      <trkpt lat="45.80338" lon="4.98384">
        <ele>180.955</ele>
        <time>2011-06-17T14:27:54Z</time>
      </trkpt>
      <trkpt lat="45.80339" lon="4.98369">
        <ele>180.58</ele>
        <time>2011-06-17T14:27:56Z</time>
      </trkpt>
      <trkpt lat="45.80344" lon="4.98346">
        <ele>181.901</ele>
        <time>2011-06-17T14:28:00Z</time>
      </trkpt>
      <trkpt lat="45.80348" lon="4.98289">
        <ele>181.1</ele>
        <time>2011-06-17T14:28:11Z</time>
      </trkpt>
      <trkpt lat="45.80345" lon="4.98275">
        <ele>180.837</ele>
        <time>2011-06-17T14:28:14Z</time>
      </trkpt>
      <trkpt lat="45.8035" lon="4.98243">
        <ele>182.012</ele>
        <time>2011-06-17T14:28:20Z</time>
      </trkpt>
      <trkpt lat="45.80365" lon="4.98227">
        <ele>181.666</ele>
        <time>2011-06-17T14:28:24Z</time>
      </trkpt>
      <trkpt lat="45.80375" lon="4.98222">
        <ele>182.362</ele>
        <time>2011-06-17T14:28:27Z</time>
      </trkpt>
      <trkpt lat="45.8038" lon="4.98211">
        <ele>182.084</ele>
        <time>2011-06-17T14:28:30Z</time>
      </trkpt>
      <trkpt lat="45.80386" lon="4.982">
        <ele>181.393</ele>
        <time>2011-06-17T14:28:33Z</time>
      </trkpt>
      <trkpt lat="45.80397" lon="4.98168">
        <ele>182.327</ele>
        <time>2011-06-17T14:28:40Z</time>
      </trkpt>
      <trkpt lat="45.80394" lon="4.98151">
        <ele>181.178</ele>
        <time>2011-06-17T14:28:43Z</time>
      </trkpt>
      <trkpt lat="45.80383" lon="4.98137">
        <ele>181.361</ele>
        <time>2011-06-17T14:28:46Z</time>
      </trkpt>
      <trkpt lat="45.80378" lon="4.98121">
        <ele>180.846</ele>
        <time>2011-06-17T14:28:49Z</time>
      </trkpt>
      <trkpt lat="45.80363" lon="4.98099">
        <ele>180.239</ele>
        <time>2011-06-17T14:28:54Z</time>
      </trkpt>
      <trkpt lat="45.80347" lon="4.98087">
        <ele>182.259</ele>
        <time>2011-06-17T14:28:59Z</time>
      </trkpt>
      <trkpt lat="45.80342" lon="4.98083">
        <ele>183.449</ele>
        <time>2011-06-17T14:29:01Z</time>
      </trkpt>
      <trkpt lat="45.80331" lon="4.98093">
        <ele>182.509</ele>
        <time>2011-06-17T14:29:13Z</time>
      </trkpt>
      <trkpt lat="45.80323" lon="4.98105">
        <ele>180.723</ele>
        <time>2011-06-17T14:29:36Z</time>
      </trkpt>
      <trkpt lat="45.80318" lon="4.98113">
        <ele>178.168</ele>
        <time>2011-06-17T14:29:38Z</time>
      </trkpt>
      <trkpt lat="45.80308" lon="4.98129">
        <ele>181.745</ele>
        <time>2011-06-17T14:29:42Z</time>
      </trkpt>
      <trkpt lat="45.80306" lon="4.98132">
        <ele>181.744</ele>
        <time>2011-06-17T14:29:43Z</time>
      </trkpt>
      <trkpt lat="45.80287" lon="4.98165">
        <ele>182.249</ele>
        <time>2011-06-17T14:29:52Z</time>
      </trkpt>
      <trkpt lat="45.80253" lon="4.98197">
        <ele>181.814</ele>
        <time>2011-06-17T14:30:01Z</time>
      </trkpt>
      <trkpt lat="45.80245" lon="4.98204">
        <ele>180.378</ele>
        <time>2011-06-17T14:30:03Z</time>
      </trkpt>
      <trkpt lat="45.80229" lon="4.98211">
        <ele>179.03</ele>
        <time>2011-06-17T14:30:06Z</time>
      </trkpt>
      <trkpt lat="45.80219" lon="4.98211">
        <ele>179.458</ele>
        <time>2011-06-17T14:30:08Z</time>
      </trkpt>
      <trkpt lat="45.80209" lon="4.98207">
        <ele>180.147</ele>
        <time>2011-06-17T14:30:10Z</time>
      </trkpt>
      <trkpt lat="45.80189" lon="4.98222">
        <ele>181.311</ele>
        <time>2011-06-17T14:30:15Z</time>
      </trkpt>
      <trkpt lat="45.80181" lon="4.98233">
        <ele>181.566</ele>
        <time>2011-06-17T14:30:17Z</time>
      </trkpt>
      <trkpt lat="45.80174" lon="4.98247">
        <ele>180.017</ele>
        <time>2011-06-17T14:30:19Z</time>
      </trkpt>
      <trkpt lat="45.8017" lon="4.98254">
        <ele>180.014</ele>
        <time>2011-06-17T14:30:20Z</time>
      </trkpt>
      <trkpt lat="45.80146" lon="4.9829">
        <ele>181.165</ele>
        <time>2011-06-17T14:30:26Z</time>
      </trkpt>
      <trkpt lat="45.80138" lon="4.98304">
        <ele>181.094</ele>
        <time>2011-06-17T14:30:28Z</time>
      </trkpt>
      <trkpt lat="45.80123" lon="4.98316">
        <ele>179.834</ele>
        <time>2011-06-17T14:30:31Z</time>
      </trkpt>
      <trkpt lat="45.80086" lon="4.98332">
        <ele>180.802</ele>
        <time>2011-06-17T14:30:37Z</time>
      </trkpt>
      <trkpt lat="45.8007" lon="4.98341">
        <ele>181.418</ele>
        <time>2011-06-17T14:30:40Z</time>
      </trkpt>
      <trkpt lat="45.80049" lon="4.98345">
        <ele>181.366</ele>
        <time>2011-06-17T14:30:44Z</time>
      </trkpt>
      <trkpt lat="45.80032" lon="4.98341">
        <ele>181.887</ele>
        <time>2011-06-17T14:30:48Z</time>
      </trkpt>
      <trkpt lat="45.80026" lon="4.9834">
        <ele>181.782</ele>
        <time>2011-06-17T14:31:12Z</time>
      </trkpt>
      <trkpt lat="45.80023" lon="4.98318">
        <ele>182.094</ele>
        <time>2011-06-17T14:31:15Z</time>
      </trkpt>
      <trkpt lat="45.80012" lon="4.98289">
        <ele>182.516</ele>
        <time>2011-06-17T14:31:19Z</time>
      </trkpt>
      <trkpt lat="45.79991" lon="4.98204">
        <ele>182.239</ele>
        <time>2011-06-17T14:31:29Z</time>
      </trkpt>
      <trkpt lat="45.79986" lon="4.98178">
        <ele>181.44</ele>
        <time>2011-06-17T14:31:32Z</time>
      </trkpt>
      <trkpt lat="45.79969" lon="4.98155">
        <ele>183.47</ele>
        <time>2011-06-17T14:31:36Z</time>
      </trkpt>
      <trkpt lat="45.79956" lon="4.98115">
        <ele>182.339</ele>
        <time>2011-06-17T14:31:41Z</time>
      </trkpt>
      <trkpt lat="45.79946" lon="4.98074">
        <ele>181.792</ele>
        <time>2011-06-17T14:31:46Z</time>
      </trkpt>
      <trkpt lat="45.79927" lon="4.98069">
        <ele>181.635</ele>
        <time>2011-06-17T14:31:50Z</time>
      </trkpt>
      <trkpt lat="45.79911" lon="4.9808">
        <ele>180.74</ele>
        <time>2011-06-17T14:31:53Z</time>
      </trkpt>
      <trkpt lat="45.7989" lon="4.98094">
        <ele>180.698</ele>
        <time>2011-06-17T14:31:57Z</time>
      </trkpt>
      <trkpt lat="45.79845" lon="4.98119">
        <ele>180.849</ele>
        <time>2011-06-17T14:32:05Z</time>
      </trkpt>
      <trkpt lat="45.79828" lon="4.98132">
        <ele>180.94</ele>
        <time>2011-06-17T14:32:09Z</time>
      </trkpt>
      <trkpt lat="45.79801" lon="4.98148">
        <ele>181.348</ele>
        <time>2011-06-17T14:32:14Z</time>
      </trkpt>
      <trkpt lat="45.79759" lon="4.98177">
        <ele>179.911</ele>
        <time>2011-06-17T14:32:23Z</time>
      </trkpt>
      <trkpt lat="45.79753" lon="4.98188">
        <ele>180.553</ele>
        <time>2011-06-17T14:32:25Z</time>
      </trkpt>
      <trkpt lat="45.79726" lon="4.98258">
        <ele>180.562</ele>
        <time>2011-06-17T14:32:35Z</time>
      </trkpt>
      <trkpt lat="45.79707" lon="4.98266">
        <ele>179.289</ele>
        <time>2011-06-17T14:32:39Z</time>
      </trkpt>
      <trkpt lat="45.79688" lon="4.98277">
        <ele>180.511</ele>
        <time>2011-06-17T14:32:43Z</time>
      </trkpt>
      <trkpt lat="45.79618" lon="4.98318">
        <ele>177.251</ele>
        <time>2011-06-17T14:32:58Z</time>
      </trkpt>
      <trkpt lat="45.79614" lon="4.9832">
        <ele>177.25</ele>
        <time>2011-06-17T14:32:59Z</time>
      </trkpt>
      <trkpt lat="45.7954" lon="4.98361">
        <ele>182.129</ele>
        <time>2011-06-17T14:33:16Z</time>
      </trkpt>
      <trkpt lat="45.79508" lon="4.98379">
        <ele>182.42</ele>
        <time>2011-06-17T14:33:23Z</time>
      </trkpt>
      <trkpt lat="45.7948" lon="4.98395">
        <ele>181.212</ele>
        <time>2011-06-17T14:33:29Z</time>
      </trkpt>
      <trkpt lat="45.79461" lon="4.98406">
        <ele>180.261</ele>
        <time>2011-06-17T14:33:33Z</time>
      </trkpt>
      <trkpt lat="45.79445" lon="4.98391">
        <ele>183.131</ele>
        <time>2011-06-17T14:33:38Z</time>
      </trkpt>
      <trkpt lat="45.79438" lon="4.98375">
        <ele>182.573</ele>
        <time>2011-06-17T14:33:41Z</time>
      </trkpt>
      <trkpt lat="45.79434" lon="4.98363">
        <ele>180.893</ele>
        <time>2011-06-17T14:33:43Z</time>
      </trkpt>
      <trkpt lat="45.79426" lon="4.98323">
        <ele>181.595</ele>
        <time>2011-06-17T14:33:49Z</time>
      </trkpt>
      <trkpt lat="45.79419" lon="4.98295">
        <ele>181.852</ele>
        <time>2011-06-17T14:33:53Z</time>
      </trkpt>
      <trkpt lat="45.79401" lon="4.98272">
        <ele>182.612</ele>
        <time>2011-06-17T14:33:59Z</time>
      </trkpt>
      <trkpt lat="45.79393" lon="4.98272">
        <ele>183.823</ele>
        <time>2011-06-17T14:34:01Z</time>
      </trkpt>
      <trkpt lat="45.79368" lon="4.98279">
        <ele>183.351</ele>
        <time>2011-06-17T14:34:07Z</time>
      </trkpt>
      <trkpt lat="45.79362" lon="4.98256">
        <ele>182.957</ele>
        <time>2011-06-17T14:34:12Z</time>
      </trkpt>
      <trkpt lat="45.79373" lon="4.98108">
        <ele>181.266</ele>
        <time>2011-06-17T14:34:28Z</time>
      </trkpt>
      <trkpt lat="45.79366" lon="4.98066">
        <ele>182.276</ele>
        <time>2011-06-17T14:34:33Z</time>
      </trkpt>
      <trkpt lat="45.79367" lon="4.9802">
        <ele>181.193</ele>
        <time>2011-06-17T14:34:38Z</time>
      </trkpt>
      <trkpt lat="45.79367" lon="4.97988">
        <ele>180.957</ele>
        <time>2011-06-17T14:34:42Z</time>
      </trkpt>
      <trkpt lat="45.79381" lon="4.97951">
        <ele>180.587</ele>
        <time>2011-06-17T14:34:47Z</time>
      </trkpt>
      <trkpt lat="45.79399" lon="4.97928">
        <ele>180.538</ele>
        <time>2011-06-17T14:34:51Z</time>
      </trkpt>
      <trkpt lat="45.79421" lon="4.97911">
        <ele>182.468</ele>
        <time>2011-06-17T14:34:55Z</time>
      </trkpt>
      <trkpt lat="45.79432" lon="4.97902">
        <ele>182.427</ele>
        <time>2011-06-17T14:34:57Z</time>
      </trkpt>
      <trkpt lat="45.79446" lon="4.97883">
        <ele>181.977</ele>
        <time>2011-06-17T14:35:01Z</time>
      </trkpt>
      <trkpt lat="45.79525" lon="4.97853">
        <ele>181.107</ele>
        <time>2011-06-17T14:35:12Z</time>
      </trkpt>
      <trkpt lat="45.79555" lon="4.97821">
        <ele>180.595</ele>
        <time>2011-06-17T14:35:17Z</time>
      </trkpt>
      <trkpt lat="45.79559" lon="4.97804">
        <ele>181.201</ele>
        <time>2011-06-17T14:35:19Z</time>
      </trkpt>
      <trkpt lat="45.79568" lon="4.97793">
        <ele>182.353</ele>
        <time>2011-06-17T14:35:21Z</time>
      </trkpt>
      <trkpt lat="45.79584" lon="4.97784">
        <ele>183.454</ele>
        <time>2011-06-17T14:35:24Z</time>
      </trkpt>
      <trkpt lat="45.79601" lon="4.97754">
        <ele>183.379</ele>
        <time>2011-06-17T14:35:29Z</time>
      </trkpt>
      <trkpt lat="45.79632" lon="4.97713">
        <ele>182.79</ele>
        <time>2011-06-17T14:35:36Z</time>
      </trkpt>
      <trkpt lat="45.79658" lon="4.97646">
        <ele>183.131</ele>
        <time>2011-06-17T14:35:45Z</time>
      </trkpt>
      <trkpt lat="45.79678" lon="4.97621">
        <ele>184.145</ele>
        <time>2011-06-17T14:35:50Z</time>
      </trkpt>
      <trkpt lat="45.7972" lon="4.976">
        <ele>187.344</ele>
        <time>2011-06-17T14:36:02Z</time>
      </trkpt>
      <trkpt lat="45.79725" lon="4.97557">
        <ele>189.745</ele>
        <time>2011-06-17T14:36:11Z</time>
      </trkpt>
      <trkpt lat="45.79724" lon="4.97531">
        <ele>189.136</ele>
        <time>2011-06-17T14:36:15Z</time>
      </trkpt>
      <trkpt lat="45.79725" lon="4.97516">
        <ele>188.959</ele>
        <time>2011-06-17T14:36:17Z</time>
      </trkpt>
      <trkpt lat="45.79723" lon="4.97439">
        <ele>190.157</ele>
        <time>2011-06-17T14:36:27Z</time>
      </trkpt>
      <trkpt lat="45.79721" lon="4.97414">
        <ele>188.598</ele>
        <time>2011-06-17T14:36:30Z</time>
      </trkpt>
      <trkpt lat="45.79718" lon="4.97305">
        <ele>186.916</ele>
        <time>2011-06-17T14:36:42Z</time>
      </trkpt>
      <trkpt lat="45.79718" lon="4.97285">
        <ele>186.893</ele>
        <time>2011-06-17T14:36:44Z</time>
      </trkpt>
      <trkpt lat="45.79715" lon="4.97194">
        <ele>187.403</ele>
        <time>2011-06-17T14:36:53Z</time>
      </trkpt>
      <trkpt lat="45.79698" lon="4.9715">
        <ele>186.613</ele>
        <time>2011-06-17T14:36:58Z</time>
      </trkpt>
      <trkpt lat="45.79686" lon="4.9711">
        <ele>186.078</ele>
        <time>2011-06-17T14:37:02Z</time>
      </trkpt>
      <trkpt lat="45.79672" lon="4.97081">
        <ele>184.061</ele>
        <time>2011-06-17T14:37:08Z</time>
      </trkpt>
      <trkpt lat="45.79672" lon="4.97064">
        <ele>182.448</ele>
        <time>2011-06-17T14:37:11Z</time>
      </trkpt>
      <trkpt lat="45.79676" lon="4.97053">
        <ele>182.807</ele>
        <time>2011-06-17T14:37:13Z</time>
      </trkpt>
      <trkpt lat="45.7968" lon="4.97018">
        <ele>182.081</ele>
        <time>2011-06-17T14:37:19Z</time>
      </trkpt>
      <trkpt lat="45.79666" lon="4.97001">
        <ele>182.7</ele>
        <time>2011-06-17T14:37:25Z</time>
      </trkpt>
      <trkpt lat="45.79664" lon="4.97">
        <ele>182.693</ele>
        <time>2011-06-17T14:37:26Z</time>
      </trkpt>
      <trkpt lat="45.79661" lon="4.96953">
        <ele>183.219</ele>
        <time>2011-06-17T14:37:35Z</time>
      </trkpt>
      <trkpt lat="45.79658" lon="4.96943">
        <ele>183.334</ele>
        <time>2011-06-17T14:37:44Z</time>
      </trkpt>
      <trkpt lat="45.79654" lon="4.96934">
        <ele>180.108</ele>
        <time>2011-06-17T14:38:04Z</time>
      </trkpt>
      <trkpt lat="45.79652" lon="4.96929">
        <ele>180.102</ele>
        <time>2011-06-17T14:38:05Z</time>
      </trkpt>
      <trkpt lat="45.79656" lon="4.96907">
        <ele>181.732</ele>
        <time>2011-06-17T14:38:09Z</time>
      </trkpt>
      <trkpt lat="45.7966" lon="4.96874">
        <ele>180.005</ele>
        <time>2011-06-17T14:38:14Z</time>
      </trkpt>
      <trkpt lat="45.79665" lon="4.96839">
        <ele>179.746</ele>
        <time>2011-06-17T14:38:19Z</time>
      </trkpt>
      <trkpt lat="45.79664" lon="4.96799">
        <ele>180.463</ele>
        <time>2011-06-17T14:38:24Z</time>
      </trkpt>
      <trkpt lat="45.7967" lon="4.96737">
        <ele>180.963</ele>
        <time>2011-06-17T14:38:32Z</time>
      </trkpt>
      <trkpt lat="45.79674" lon="4.96718">
        <ele>180.428</ele>
        <time>2011-06-17T14:38:35Z</time>
      </trkpt>
      <trkpt lat="45.79679" lon="4.96705">
        <ele>180.71</ele>
        <time>2011-06-17T14:38:37Z</time>
      </trkpt>
      <trkpt lat="45.79688" lon="4.96671">
        <ele>180.054</ele>
        <time>2011-06-17T14:38:42Z</time>
      </trkpt>
      <trkpt lat="45.79687" lon="4.96646">
        <ele>180.294</ele>
        <time>2011-06-17T14:38:45Z</time>
      </trkpt>
      <trkpt lat="45.79688" lon="4.96631">
        <ele>180.602</ele>
        <time>2011-06-17T14:38:47Z</time>
      </trkpt>
      <trkpt lat="45.79698" lon="4.96549">
        <ele>180.674</ele>
        <time>2011-06-17T14:38:59Z</time>
      </trkpt>
      <trkpt lat="45.79702" lon="4.96536">
        <ele>180.174</ele>
        <time>2011-06-17T14:39:01Z</time>
      </trkpt>
      <trkpt lat="45.79704" lon="4.96516">
        <ele>179.8</ele>
        <time>2011-06-17T14:39:03Z</time>
      </trkpt>
      <trkpt lat="45.79704" lon="4.96484">
        <ele>181.571</ele>
        <time>2011-06-17T14:39:08Z</time>
      </trkpt>
      <trkpt lat="45.79703" lon="4.96467">
        <ele>180.247</ele>
        <time>2011-06-17T14:39:11Z</time>
      </trkpt>
      <trkpt lat="45.7971" lon="4.96438">
        <ele>179.942</ele>
        <time>2011-06-17T14:39:15Z</time>
      </trkpt>
      <trkpt lat="45.79718" lon="4.96409">
        <ele>179.014</ele>
        <time>2011-06-17T14:39:19Z</time>
      </trkpt>
      <trkpt lat="45.79727" lon="4.96358">
        <ele>180.445</ele>
        <time>2011-06-17T14:39:26Z</time>
      </trkpt>
      <trkpt lat="45.7973" lon="4.96343">
        <ele>180.765</ele>
        <time>2011-06-17T14:39:28Z</time>
      </trkpt>
      <trkpt lat="45.79736" lon="4.96287">
        <ele>180.876</ele>
        <time>2011-06-17T14:39:36Z</time>
      </trkpt>
      <trkpt lat="45.79737" lon="4.96264">
        <ele>180.219</ele>
        <time>2011-06-17T14:39:39Z</time>
      </trkpt>
      <trkpt lat="45.79736" lon="4.96249">
        <ele>180.607</ele>
        <time>2011-06-17T14:39:41Z</time>
      </trkpt>
      <trkpt lat="45.79733" lon="4.96223">
        <ele>181.388</ele>
        <time>2011-06-17T14:39:45Z</time>
      </trkpt>
      <trkpt lat="45.79734" lon="4.96209">
        <ele>182.155</ele>
        <time>2011-06-17T14:39:47Z</time>
      </trkpt>
      <trkpt lat="45.79742" lon="4.96149">
        <ele>180.817</ele>
        <time>2011-06-17T14:39:56Z</time>
      </trkpt>
      <trkpt lat="45.79751" lon="4.96112">
        <ele>180.942</ele>
        <time>2011-06-17T14:40:01Z</time>
      </trkpt>
      <trkpt lat="45.79766" lon="4.96067">
        <ele>181.529</ele>
        <time>2011-06-17T14:40:07Z</time>
      </trkpt>
      <trkpt lat="45.79763" lon="4.96037">
        <ele>180.914</ele>
        <time>2011-06-17T14:40:11Z</time>
      </trkpt>
      <trkpt lat="45.79722" lon="4.9596">
        <ele>180.094</ele>
        <time>2011-06-17T14:40:23Z</time>
      </trkpt>
      <trkpt lat="45.79713" lon="4.95935">
        <ele>179.623</ele>
        <time>2011-06-17T14:40:27Z</time>
      </trkpt>
      <trkpt lat="45.79701" lon="4.95913">
        <ele>179.345</ele>
        <time>2011-06-17T14:40:31Z</time>
      </trkpt>
      <trkpt lat="45.79658" lon="4.95841">
        <ele>178.309</ele>
        <time>2011-06-17T14:40:45Z</time>
      </trkpt>
      <trkpt lat="45.7962" lon="4.9577">
        <ele>178.663</ele>
        <time>2011-06-17T14:40:58Z</time>
      </trkpt>
      <trkpt lat="45.79612" lon="4.95753">
        <ele>180.366</ele>
        <time>2011-06-17T14:41:01Z</time>
      </trkpt>
      <trkpt lat="45.79607" lon="4.95743">
        <ele>178.241</ele>
        <time>2011-06-17T14:41:03Z</time>
      </trkpt>
      <trkpt lat="45.79586" lon="4.95702">
        <ele>180.77</ele>
        <time>2011-06-17T14:41:11Z</time>
      </trkpt>
      <trkpt lat="45.79583" lon="4.95674">
        <ele>179.36</ele>
        <time>2011-06-17T14:41:16Z</time>
      </trkpt>
      <trkpt lat="45.79578" lon="4.95648">
        <ele>178.235</ele>
        <time>2011-06-17T14:41:20Z</time>
      </trkpt>
      <trkpt lat="45.79576" lon="4.95622">
        <ele>180.42</ele>
        <time>2011-06-17T14:41:24Z</time>
      </trkpt>
      <trkpt lat="45.79571" lon="4.9558">
        <ele>179.288</ele>
        <time>2011-06-17T14:41:30Z</time>
      </trkpt>
      <trkpt lat="45.79586" lon="4.95547">
        <ele>180.831</ele>
        <time>2011-06-17T14:41:37Z</time>
      </trkpt>
      <trkpt lat="45.79634" lon="4.95549">
        <ele>180.882</ele>
        <time>2011-06-17T14:41:46Z</time>
      </trkpt>
      <trkpt lat="45.79674" lon="4.95517">
        <ele>181.01</ele>
        <time>2011-06-17T14:41:54Z</time>
      </trkpt>
      <trkpt lat="45.7968" lon="4.95504">
        <ele>179.587</ele>
        <time>2011-06-17T14:41:56Z</time>
      </trkpt>
      <trkpt lat="45.79682" lon="4.9549">
        <ele>179.665</ele>
        <time>2011-06-17T14:41:58Z</time>
      </trkpt>
      <trkpt lat="45.79684" lon="4.95477">
        <ele>180.071</ele>
        <time>2011-06-17T14:42:00Z</time>
      </trkpt>
      <trkpt lat="45.79683" lon="4.95462">
        <ele>180.49</ele>
        <time>2011-06-17T14:42:03Z</time>
      </trkpt>
      <trkpt lat="45.79687" lon="4.95444">
        <ele>180.14</ele>
        <time>2011-06-17T14:42:07Z</time>
      </trkpt>
      <trkpt lat="45.79687" lon="4.95406">
        <ele>180.272</ele>
        <time>2011-06-17T14:42:13Z</time>
      </trkpt>
      <trkpt lat="45.79684" lon="4.95392">
        <ele>180.478</ele>
        <time>2011-06-17T14:42:15Z</time>
      </trkpt>
      <trkpt lat="45.79685" lon="4.95344">
        <ele>180.942</ele>
        <time>2011-06-17T14:42:23Z</time>
      </trkpt>
      <trkpt lat="45.79683" lon="4.95313">
        <ele>181.031</ele>
        <time>2011-06-17T14:42:28Z</time>
      </trkpt>
      <trkpt lat="45.79681" lon="4.95287">
        <ele>182.903</ele>
        <time>2011-06-17T14:42:34Z</time>
      </trkpt>
      <trkpt lat="45.79683" lon="4.95285">
        <ele>182.894</ele>
        <time>2011-06-17T14:42:35Z</time>
      </trkpt>
      <trkpt lat="45.79678" lon="4.95238">
        <ele>184.272</ele>
        <time>2011-06-17T14:42:49Z</time>
      </trkpt>
      <trkpt lat="45.79671" lon="4.95212">
        <ele>180.871</ele>
        <time>2011-06-17T14:42:53Z</time>
      </trkpt>
      <trkpt lat="45.79668" lon="4.95171">
        <ele>177.875</ele>
        <time>2011-06-17T14:42:57Z</time>
      </trkpt>
      <trkpt lat="45.79676" lon="4.95121">
        <ele>177.747</ele>
        <time>2011-06-17T14:43:03Z</time>
      </trkpt>
      <trkpt lat="45.79685" lon="4.95092">
        <ele>179.109</ele>
        <time>2011-06-17T14:43:07Z</time>
      </trkpt>
      <trkpt lat="45.79688" lon="4.95013">
        <ele>178.972</ele>
        <time>2011-06-17T14:43:17Z</time>
      </trkpt>
      <trkpt lat="45.79688" lon="4.94976">
        <ele>178.261</ele>
        <time>2011-06-17T14:43:22Z</time>
      </trkpt>
      <trkpt lat="45.79685" lon="4.94938">
        <ele>178.861</ele>
        <time>2011-06-17T14:43:27Z</time>
      </trkpt>
      <trkpt lat="45.79684" lon="4.9488">
        <ele>180.115</ele>
        <time>2011-06-17T14:43:35Z</time>
      </trkpt>
      <trkpt lat="45.79685" lon="4.94843">
        <ele>178.999</ele>
        <time>2011-06-17T14:43:40Z</time>
      </trkpt>
      <trkpt lat="45.79679" lon="4.94714">
        <ele>179.969</ele>
        <time>2011-06-17T14:43:57Z</time>
      </trkpt>
      <trkpt lat="45.79676" lon="4.94614">
        <ele>179.067</ele>
        <time>2011-06-17T14:44:10Z</time>
      </trkpt>
      <trkpt lat="45.79677" lon="4.94579">
        <ele>179.862</ele>
        <time>2011-06-17T14:44:15Z</time>
      </trkpt>
      <trkpt lat="45.79679" lon="4.94557">
        <ele>181.189</ele>
        <time>2011-06-17T14:44:18Z</time>
      </trkpt>
      <trkpt lat="45.79744" lon="4.94392">
        <ele>180.349</ele>
        <time>2011-06-17T14:44:40Z</time>
      </trkpt>
      <trkpt lat="45.79754" lon="4.94371">
        <ele>180.517</ele>
        <time>2011-06-17T14:44:43Z</time>
      </trkpt>
      <trkpt lat="45.79779" lon="4.9435">
        <ele>179.675</ele>
        <time>2011-06-17T14:44:48Z</time>
      </trkpt>
      <trkpt lat="45.798" lon="4.94348">
        <ele>180.71</ele>
        <time>2011-06-17T14:44:52Z</time>
      </trkpt>
      <trkpt lat="45.79808" lon="4.94306">
        <ele>179.715</ele>
        <time>2011-06-17T14:44:59Z</time>
      </trkpt>
      <trkpt lat="45.79813" lon="4.94249">
        <ele>182.613</ele>
        <time>2011-06-17T14:45:06Z</time>
      </trkpt>
      <trkpt lat="45.79814" lon="4.94224">
        <ele>183.33</ele>
        <time>2011-06-17T14:45:09Z</time>
      </trkpt>
      <trkpt lat="45.7983" lon="4.94199">
        <ele>182.295</ele>
        <time>2011-06-17T14:45:13Z</time>
      </trkpt>
      <trkpt lat="45.79842" lon="4.94192">
        <ele>182.993</ele>
        <time>2011-06-17T14:45:15Z</time>
      </trkpt>
      <trkpt lat="45.79857" lon="4.94162">
        <ele>183.313</ele>
        <time>2011-06-17T14:45:20Z</time>
      </trkpt>
      <trkpt lat="45.79864" lon="4.94114">
        <ele>182.45</ele>
        <time>2011-06-17T14:45:27Z</time>
      </trkpt>
      <trkpt lat="45.79851" lon="4.94062">
        <ele>181.804</ele>
        <time>2011-06-17T14:45:35Z</time>
      </trkpt>
      <trkpt lat="45.79815" lon="4.94036">
        <ele>180.992</ele>
        <time>2011-06-17T14:45:44Z</time>
      </trkpt>
      <trkpt lat="45.79808" lon="4.94029">
        <ele>180.172</ele>
        <time>2011-06-17T14:45:46Z</time>
      </trkpt>
      <trkpt lat="45.79807" lon="4.94015">
        <ele>181.935</ele>
        <time>2011-06-17T14:45:48Z</time>
      </trkpt>
      <trkpt lat="45.79805" lon="4.93999">
        <ele>183.898</ele>
        <time>2011-06-17T14:45:50Z</time>
      </trkpt>
      <trkpt lat="45.79804" lon="4.93974">
        <ele>182.079</ele>
        <time>2011-06-17T14:45:53Z</time>
      </trkpt>
      <trkpt lat="45.79802" lon="4.93936">
        <ele>182.296</ele>
        <time>2011-06-17T14:45:58Z</time>
      </trkpt>
      <trkpt lat="45.79801" lon="4.93914">
        <ele>181.595</ele>
        <time>2011-06-17T14:46:01Z</time>
      </trkpt>
      <trkpt lat="45.79805" lon="4.93892">
        <ele>181.538</ele>
        <time>2011-06-17T14:46:04Z</time>
      </trkpt>
      <trkpt lat="45.79809" lon="4.93877">
        <ele>182.832</ele>
        <time>2011-06-17T14:46:06Z</time>
      </trkpt>
      <trkpt lat="45.79819" lon="4.93839">
        <ele>183.007</ele>
        <time>2011-06-17T14:46:11Z</time>
      </trkpt>
      <trkpt lat="45.79839" lon="4.93812">
        <ele>183.322</ele>
        <time>2011-06-17T14:46:16Z</time>
      </trkpt>
      <trkpt lat="45.79854" lon="4.938">
        <ele>182.74</ele>
        <time>2011-06-17T14:46:19Z</time>
      </trkpt>
      <trkpt lat="45.79865" lon="4.93795">
        <ele>182.64</ele>
        <time>2011-06-17T14:46:22Z</time>
      </trkpt>
      <trkpt lat="45.79906" lon="4.93771">
        <ele>182.782</ele>
        <time>2011-06-17T14:46:30Z</time>
      </trkpt>
      <trkpt lat="45.79953" lon="4.93752">
        <ele>182.468</ele>
        <time>2011-06-17T14:46:38Z</time>
      </trkpt>
      <trkpt lat="45.79979" lon="4.93728">
        <ele>181.928</ele>
        <time>2011-06-17T14:46:43Z</time>
      </trkpt>
      <trkpt lat="45.80007" lon="4.93707">
        <ele>181.002</ele>
        <time>2011-06-17T14:46:48Z</time>
      </trkpt>
      <trkpt lat="45.80035" lon="4.93692">
        <ele>181.816</ele>
        <time>2011-06-17T14:46:53Z</time>
      </trkpt>
      <trkpt lat="45.80056" lon="4.93691">
        <ele>183.236</ele>
        <time>2011-06-17T14:46:57Z</time>
      </trkpt>
      <trkpt lat="45.80077" lon="4.93681">
        <ele>184.842</ele>
        <time>2011-06-17T14:47:01Z</time>
      </trkpt>
      <trkpt lat="45.80092" lon="4.93671">
        <ele>184.38</ele>
        <time>2011-06-17T14:47:04Z</time>
      </trkpt>
      <trkpt lat="45.80176" lon="4.93604">
        <ele>183.462</ele>
        <time>2011-06-17T14:47:19Z</time>
      </trkpt>
      <trkpt lat="45.80226" lon="4.93531">
        <ele>181.712</ele>
        <time>2011-06-17T14:47:31Z</time>
      </trkpt>
      <trkpt lat="45.80249" lon="4.93516">
        <ele>182.792</ele>
        <time>2011-06-17T14:47:36Z</time>
      </trkpt>
      <trkpt lat="45.80262" lon="4.93507">
        <ele>182.679</ele>
        <time>2011-06-17T14:47:39Z</time>
      </trkpt>
      <trkpt lat="45.80277" lon="4.93496">
        <ele>181.211</ele>
        <time>2011-06-17T14:47:42Z</time>
      </trkpt>
      <trkpt lat="45.80288" lon="4.93471">
        <ele>183.053</ele>
        <time>2011-06-17T14:47:46Z</time>
      </trkpt>
      <trkpt lat="45.80291" lon="4.93456">
        <ele>183.261</ele>
        <time>2011-06-17T14:47:48Z</time>
      </trkpt>
      <trkpt lat="45.80304" lon="4.93435">
        <ele>182.522</ele>
        <time>2011-06-17T14:47:52Z</time>
      </trkpt>
      <trkpt lat="45.80328" lon="4.93419">
        <ele>181.096</ele>
        <time>2011-06-17T14:47:57Z</time>
      </trkpt>
    </trkseg>
  </trk>
</gpx>